BAW2PD EGLL-KORD
Flight info
| Callsign | BAW2PD |
|---|---|
| Flight time | 7h 47m |
| Altitude | 36000 |
| Route | ULTIB T420 TNT UL28 PENIL M144 BAGSO DCT ERNAN DCT LUTOV DCT SUNOT DCT 57N020W DCT 58N040W DCT 58N050W DCT PRAWN DCT YDP N846C ROUND N850C SSM |
| Aircraft | B744/H-VGDW/C |
Departure
| Time | 2026-05-05 23:24 |
|---|---|
| Airport | London Heathrow Airport (EGLL) |
Arrival
| Time | 2026-05-06 07:12 |
|---|---|
| Airport | Chicago O'Hare International Airport (KORD) |
| Time | Latitude | Longitude | Altitude | Speed | Heading |
|---|---|---|---|---|---|
| 2026-05-05 22:48 | 51.46984 | -0.47727 | 96 ft | 0 kts | 89° |
| 2026-05-05 23:15 | 51.46984 | -0.47741 | 96 ft | 3 kts | 89° |
| 2026-05-05 23:15 | 51.46984 | -0.47773 | 96 ft | 3 kts | 89° |
| 2026-05-05 23:16 | 51.46984 | -0.47804 | 96 ft | 2 kts | 89° |
| 2026-05-05 23:16 | 51.46984 | -0.47829 | 96 ft | 3 kts | 105° |
| 2026-05-05 23:16 | 51.46989 | -0.47851 | 96 ft | 3 kts | 137° |
| 2026-05-05 23:16 | 51.47001 | -0.47866 | 96 ft | 3 kts | 167° |
| 2026-05-05 23:17 | 51.47021 | -0.47870 | 96 ft | 3 kts | 178° |
| 2026-05-05 23:17 | 51.47038 | -0.47871 | 96 ft | 2 kts | 180° |
| 2026-05-05 23:17 | 51.47043 | -0.47871 | 96 ft | 0 kts | 180° |
| 2026-05-05 23:20 | 51.47031 | -0.47871 | 96 ft | 7 kts | 180° |
| 2026-05-05 23:20 | 51.46952 | -0.47870 | 96 ft | 12 kts | 180° |
| 2026-05-05 23:20 | 51.46869 | -0.47870 | 96 ft | 12 kts | 180° |
| 2026-05-05 23:21 | 51.46789 | -0.47869 | 96 ft | 11 kts | 179° |
| 2026-05-05 23:21 | 51.46712 | -0.47868 | 96 ft | 11 kts | 180° |
| 2026-05-05 23:21 | 51.46657 | -0.47926 | 96 ft | 10 kts | 257° |
| 2026-05-05 23:21 | 51.46653 | -0.48039 | 96 ft | 10 kts | 269° |
| 2026-05-05 23:22 | 51.46653 | -0.48147 | 96 ft | 10 kts | 269° |
| 2026-05-05 23:22 | 51.46652 | -0.48259 | 96 ft | 13 kts | 269° |
| 2026-05-05 23:22 | 51.46652 | -0.48434 | 96 ft | 16 kts | 270° |
| 2026-05-05 23:22 | 51.46651 | -0.48604 | 96 ft | 15 kts | 270° |
| 2026-05-05 23:23 | 51.46626 | -0.48752 | 96 ft | 14 kts | 216° |
| 2026-05-05 23:23 | 51.46534 | -0.48780 | 96 ft | 13 kts | 169° |
| 2026-05-05 23:23 | 51.46478 | -0.48692 | 96 ft | 6 kts | 89° |
| 2026-05-05 23:23 | 51.46478 | -0.48687 | 96 ft | 1 kts | 88° |
| 2026-05-05 23:24 | 51.46481 | -0.48365 | 96 ft | 59 kts | 89° |
| 2026-05-05 23:24 | 51.46485 | -0.47298 | 96 ft | 131 kts | 89° |
| 2026-05-05 23:24 | 51.46492 | -0.45498 | 159 ft | 185 kts | 89° |
| 2026-05-05 23:24 | 51.46483 | -0.43402 | 944 ft | 186 kts | 89° |
| 2026-05-05 23:25 | 51.46613 | -0.41306 | 1730 ft | 199 kts | 71° |
| 2026-05-05 23:25 | 51.47251 | -0.39251 | 2089 ft | 211 kts | 58° |
| 2026-05-05 23:25 | 51.48051 | -0.37225 | 2464 ft | 218 kts | 55° |
| 2026-05-05 23:25 | 51.48622 | -0.35820 | 2692 ft | 226 kts | 55° |
| 2026-05-05 23:26 | 51.49498 | -0.33583 | 2834 ft | 248 kts | 56° |
| 2026-05-05 23:26 | 51.50398 | -0.31178 | 3234 ft | 259 kts | 56° |
| 2026-05-05 23:26 | 51.51353 | -0.28654 | 3893 ft | 264 kts | 56° |
| 2026-05-05 23:26 | 51.52302 | -0.26166 | 4602 ft | 266 kts | 56° |
| 2026-05-05 23:27 | 51.53280 | -0.23612 | 5208 ft | 270 kts | 57° |
| 2026-05-05 23:27 | 51.54265 | -0.21033 | 5624 ft | 273 kts | 56° |
| 2026-05-05 23:27 | 51.55574 | -0.18850 | 5883 ft | 277 kts | 32° |
| 2026-05-05 23:27 | 51.57388 | -0.17887 | 6583 ft | 277 kts | 7° |
| 2026-05-05 23:28 | 51.59299 | -0.18291 | 7250 ft | 280 kts | 344° |
| 2026-05-05 23:28 | 51.61076 | -0.19646 | 7849 ft | 286 kts | 330° |
| 2026-05-05 23:28 | 51.62716 | -0.21519 | 8407 ft | 291 kts | 328° |
| 2026-05-05 23:28 | 51.64406 | -0.23371 | 8927 ft | 297 kts | 328° |
| 2026-05-05 23:29 | 51.66134 | -0.25210 | 9511 ft | 299 kts | 328° |
| 2026-05-05 23:29 | 51.67881 | -0.27043 | 10121 ft | 301 kts | 328° |
| 2026-05-05 23:29 | 51.69677 | -0.28919 | 10425 ft | 316 kts | 328° |
| 2026-05-05 23:29 | 51.71572 | -0.30918 | 10576 ft | 335 kts | 327° |
| 2026-05-05 23:30 | 51.73578 | -0.33051 | 10721 ft | 355 kts | 327° |
| 2026-05-05 23:30 | 51.75694 | -0.35311 | 10860 ft | 375 kts | 327° |
| 2026-05-05 23:30 | 51.77922 | -0.37696 | 11111 ft | 390 kts | 327° |
| 2026-05-05 23:30 | 51.80231 | -0.40174 | 11677 ft | 397 kts | 326° |
| 2026-05-05 23:31 | 51.82520 | -0.42633 | 12249 ft | 403 kts | 326° |
| 2026-05-05 23:31 | 51.84903 | -0.45197 | 12897 ft | 408 kts | 326° |
| 2026-05-05 23:31 | 51.87279 | -0.47755 | 13586 ft | 412 kts | 326° |
| 2026-05-05 23:31 | 51.89644 | -0.50300 | 14312 ft | 415 kts | 326° |
| 2026-05-05 23:32 | 51.92064 | -0.52904 | 15002 ft | 420 kts | 326° |
| 2026-05-05 23:32 | 51.94502 | -0.55532 | 15780 ft | 423 kts | 326° |
| 2026-05-05 23:32 | 51.97015 | -0.58080 | 16408 ft | 429 kts | 328° |
| 2026-05-05 23:32 | 51.99603 | -0.60533 | 17071 ft | 433 kts | 329° |
| 2026-05-05 23:33 | 52.02201 | -0.63023 | 17836 ft | 434 kts | 328° |
| 2026-05-05 23:33 | 52.04805 | -0.65571 | 18377 ft | 441 kts | 327° |
| 2026-05-05 23:33 | 52.07441 | -0.68166 | 18961 ft | 445 kts | 327° |
| 2026-05-05 23:33 | 52.10100 | -0.70784 | 19556 ft | 449 kts | 327° |
| 2026-05-05 23:34 | 52.12788 | -0.73435 | 20128 ft | 453 kts | 327° |
| 2026-05-05 23:34 | 52.15503 | -0.76102 | 20684 ft | 458 kts | 327° |
| 2026-05-05 23:34 | 52.18235 | -0.78796 | 21234 ft | 462 kts | 327° |
| 2026-05-05 23:34 | 52.20995 | -0.81527 | 21768 ft | 466 kts | 327° |
| 2026-05-05 23:35 | 52.23776 | -0.84279 | 22295 ft | 470 kts | 327° |
| 2026-05-05 23:35 | 52.26579 | -0.87054 | 22804 ft | 474 kts | 327° |
| 2026-05-05 23:35 | 52.29417 | -0.89844 | 23300 ft | 477 kts | 327° |
| 2026-05-05 23:35 | 52.32263 | -0.92671 | 23788 ft | 481 kts | 327° |
| 2026-05-05 23:36 | 52.35128 | -0.95533 | 24261 ft | 484 kts | 326° |
| 2026-05-05 23:36 | 52.38011 | -0.98421 | 24735 ft | 487 kts | 326° |
| 2026-05-05 23:36 | 52.40912 | -1.01332 | 25193 ft | 490 kts | 326° |
| 2026-05-05 23:36 | 52.43827 | -1.04261 | 25628 ft | 493 kts | 326° |
| 2026-05-05 23:37 | 52.46727 | -1.07172 | 26034 ft | 496 kts | 326° |
| 2026-05-05 23:37 | 52.49674 | -1.10140 | 26439 ft | 499 kts | 326° |
| 2026-05-05 23:37 | 52.52647 | -1.13121 | 26820 ft | 502 kts | 326° |
| 2026-05-05 23:37 | 52.55623 | -1.16116 | 27364 ft | 500 kts | 326° |
| 2026-05-05 23:38 | 52.58588 | -1.19096 | 28009 ft | 497 kts | 326° |
| 2026-05-05 23:38 | 52.61526 | -1.22060 | 28575 ft | 496 kts | 326° |
| 2026-05-05 23:38 | 52.64465 | -1.25038 | 29084 ft | 495 kts | 325° |
| 2026-05-05 23:38 | 52.67393 | -1.28007 | 29619 ft | 493 kts | 325° |
| 2026-05-05 23:39 | 52.70310 | -1.30973 | 30096 ft | 492 kts | 325° |
| 2026-05-05 23:39 | 52.73221 | -1.33939 | 30556 ft | 491 kts | 325° |
| 2026-05-05 23:39 | 52.76122 | -1.36902 | 31010 ft | 490 kts | 325° |
| 2026-05-05 23:39 | 52.79025 | -1.39856 | 31429 ft | 490 kts | 326° |
| 2026-05-05 23:40 | 52.81931 | -1.42779 | 31864 ft | 488 kts | 326° |
| 2026-05-05 23:40 | 52.84817 | -1.45722 | 32273 ft | 487 kts | 326° |
| 2026-05-05 23:40 | 52.87692 | -1.48674 | 32654 ft | 486 kts | 326° |
| 2026-05-05 23:40 | 52.90561 | -1.51632 | 33020 ft | 485 kts | 326° |
| 2026-05-05 23:41 | 52.93420 | -1.54586 | 33397 ft | 484 kts | 326° |
| 2026-05-05 23:41 | 52.96276 | -1.57541 | 33737 ft | 483 kts | 326° |
| 2026-05-05 23:41 | 52.99122 | -1.60490 | 34078 ft | 482 kts | 326° |
| 2026-05-05 23:41 | 53.01965 | -1.63436 | 34380 ft | 482 kts | 326° |
| 2026-05-05 23:42 | 53.04811 | -1.66385 | 34626 ft | 482 kts | 326° |
| 2026-05-05 23:42 | 53.07656 | -1.69327 | 34890 ft | 482 kts | 326° |
| 2026-05-05 23:42 | 53.10505 | -1.72272 | 35133 ft | 482 kts | 326° |
| 2026-05-05 23:42 | 53.13347 | -1.75232 | 35357 ft | 482 kts | 326° |
| 2026-05-05 23:43 | 53.16181 | -1.78194 | 35577 ft | 482 kts | 326° |
| 2026-05-05 23:43 | 53.19021 | -1.81169 | 35782 ft | 482 kts | 326° |
| 2026-05-05 23:43 | 53.21740 | -1.84392 | 35958 ft | 478 kts | 315° |
| 2026-05-05 23:43 | 53.23879 | -1.88493 | 36042 ft | 476 kts | 305° |
| 2026-05-05 23:44 | 53.27422 | -1.97897 | 36066 ft | 475 kts | 296° |
| 2026-05-05 23:44 | 53.30296 | -2.07726 | 36075 ft | 473 kts | 294° |
| 2026-05-05 23:45 | 53.33168 | -2.17615 | 36082 ft | 473 kts | 295° |
| 2026-05-05 23:45 | 53.35953 | -2.27566 | 36085 ft | 472 kts | 290° |
| 2026-05-05 23:46 | 53.38039 | -2.37981 | 36083 ft | 471 kts | 285° |
| 2026-05-05 23:46 | 53.40011 | -2.48447 | 36081 ft | 471 kts | 286° |
| 2026-05-05 23:47 | 53.41974 | -2.58929 | 36083 ft | 471 kts | 286° |
| 2026-05-05 23:47 | 53.43919 | -2.69410 | 36082 ft | 471 kts | 286° |
| 2026-05-05 23:48 | 53.45861 | -2.79906 | 36082 ft | 471 kts | 286° |
| 2026-05-05 23:48 | 53.47802 | -2.90400 | 36078 ft | 471 kts | 286° |
| 2026-05-05 23:49 | 53.49790 | -3.00872 | 36080 ft | 471 kts | 286° |
| 2026-05-05 23:49 | 53.51726 | -3.11381 | 36082 ft | 471 kts | 286° |
| 2026-05-05 23:50 | 53.53628 | -3.21911 | 36079 ft | 471 kts | 286° |
| 2026-05-05 23:50 | 53.55520 | -3.32441 | 36077 ft | 470 kts | 286° |
| 2026-05-05 23:51 | 53.57412 | -3.42971 | 36059 ft | 470 kts | 286° |
| 2026-05-05 23:51 | 53.59312 | -3.53500 | 36060 ft | 470 kts | 285° |
| 2026-05-05 23:52 | 53.61161 | -3.64048 | 36059 ft | 469 kts | 283° |
| 2026-05-05 23:52 | 53.62090 | -3.74897 | 36063 ft | 468 kts | 273° |
| 2026-05-05 23:53 | 53.62417 | -3.85839 | 36063 ft | 467 kts | 273° |
| 2026-05-05 23:53 | 53.62851 | -3.96748 | 36064 ft | 467 kts | 273° |
| 2026-05-05 23:54 | 53.63281 | -4.07666 | 36067 ft | 467 kts | 273° |
| 2026-05-05 23:54 | 53.63709 | -4.18589 | 36069 ft | 467 kts | 273° |
| 2026-05-05 23:55 | 53.64111 | -4.29440 | 36068 ft | 467 kts | 273° |
| 2026-05-05 23:55 | 53.64516 | -4.40373 | 36064 ft | 468 kts | 273° |
| 2026-05-05 23:56 | 53.64930 | -4.51317 | 36064 ft | 468 kts | 273° |
| 2026-05-05 23:56 | 53.65317 | -4.62260 | 36069 ft | 468 kts | 273° |
| 2026-05-05 23:57 | 53.65673 | -4.73219 | 36069 ft | 468 kts | 272° |
| 2026-05-05 23:57 | 53.66027 | -4.84164 | 36070 ft | 468 kts | 272° |
| 2026-05-05 23:58 | 53.66403 | -4.95112 | 36072 ft | 468 kts | 273° |
| 2026-05-05 23:58 | 53.66738 | -5.06048 | 36072 ft | 468 kts | 272° |
| 2026-05-05 23:59 | 53.67071 | -5.17003 | 36073 ft | 468 kts | 273° |
| 2026-05-05 23:59 | 53.67412 | -5.27959 | 36074 ft | 468 kts | 272° |
| 2026-05-06 00:00 | 53.67706 | -5.38915 | 36074 ft | 468 kts | 272° |
| 2026-05-06 00:00 | 53.68565 | -5.49717 | 36079 ft | 467 kts | 288° |
| 2026-05-06 00:01 | 53.71145 | -5.59786 | 36070 ft | 469 kts | 296° |
| 2026-05-06 00:01 | 53.74259 | -5.69463 | 36079 ft | 469 kts | 298° |
| 2026-05-06 00:02 | 53.77422 | -5.79095 | 36078 ft | 469 kts | 297° |
| 2026-05-06 00:02 | 53.80528 | -5.88701 | 36080 ft | 468 kts | 297° |
| 2026-05-06 00:03 | 53.83634 | -5.98382 | 36084 ft | 468 kts | 297° |
| 2026-05-06 00:03 | 53.86791 | -6.08029 | 36085 ft | 468 kts | 298° |
| 2026-05-06 00:04 | 53.89937 | -6.17693 | 36086 ft | 468 kts | 297° |
| 2026-05-06 00:04 | 53.93047 | -6.27389 | 36092 ft | 468 kts | 297° |
| 2026-05-06 00:05 | 53.97687 | -6.41980 | 36095 ft | 468 kts | 297° |
| 2026-05-06 00:06 | 54.00769 | -6.51726 | 36101 ft | 468 kts | 297° |
| 2026-05-06 00:06 | 54.03834 | -6.61462 | 36103 ft | 466 kts | 297° |
| 2026-05-06 00:07 | 54.06882 | -6.71185 | 36104 ft | 466 kts | 296° |
| 2026-05-06 00:07 | 54.09925 | -6.80928 | 36106 ft | 465 kts | 296° |
| 2026-05-06 00:08 | 54.12959 | -6.90676 | 36108 ft | 465 kts | 297° |
| 2026-05-06 00:08 | 54.16030 | -7.00387 | 36109 ft | 465 kts | 296° |
| 2026-05-06 00:09 | 54.19032 | -7.10152 | 36112 ft | 464 kts | 296° |
| 2026-05-06 00:09 | 54.22012 | -7.19930 | 36113 ft | 464 kts | 296° |
| 2026-05-06 00:10 | 54.24986 | -7.29717 | 36115 ft | 464 kts | 296° |
| 2026-05-06 00:10 | 54.27995 | -7.39465 | 36115 ft | 463 kts | 298° |
| 2026-05-06 00:11 | 54.31446 | -7.48780 | 36119 ft | 464 kts | 302° |
| 2026-05-06 00:11 | 54.35038 | -7.57973 | 36119 ft | 464 kts | 302° |
| 2026-05-06 00:12 | 54.38593 | -7.67226 | 36119 ft | 464 kts | 302° |
| 2026-05-06 00:12 | 54.42126 | -7.76506 | 36119 ft | 464 kts | 301° |
| 2026-05-06 00:13 | 54.45644 | -7.85801 | 36118 ft | 464 kts | 301° |
| 2026-05-06 00:13 | 54.48602 | -7.93495 | 36117 ft | 464 kts | 302° |
| 2026-05-06 00:14 | 54.52173 | -8.02747 | 36118 ft | 464 kts | 302° |
| 2026-05-06 00:14 | 54.55711 | -8.12055 | 36117 ft | 464 kts | 301° |
| 2026-05-06 00:15 | 54.59226 | -8.21375 | 36117 ft | 464 kts | 301° |
| 2026-05-06 00:15 | 54.62731 | -8.30721 | 36117 ft | 464 kts | 301° |
| 2026-05-06 00:16 | 54.66224 | -8.40072 | 36117 ft | 463 kts | 301° |
| 2026-05-06 00:16 | 54.69704 | -8.49428 | 36117 ft | 463 kts | 301° |
| 2026-05-06 00:17 | 54.73180 | -8.58808 | 36118 ft | 463 kts | 301° |
| 2026-05-06 00:17 | 54.76648 | -8.68202 | 36117 ft | 463 kts | 301° |
| 2026-05-06 00:18 | 54.80083 | -8.77544 | 36117 ft | 463 kts | 301° |
| 2026-05-06 00:18 | 54.83528 | -8.86947 | 36117 ft | 462 kts | 301° |
| 2026-05-06 00:19 | 54.86965 | -8.96365 | 36120 ft | 462 kts | 301° |
| 2026-05-06 00:19 | 54.90396 | -9.05801 | 36121 ft | 462 kts | 301° |
| 2026-05-06 00:20 | 54.93818 | -9.15250 | 36121 ft | 462 kts | 301° |
| 2026-05-06 00:20 | 54.97235 | -9.24722 | 36121 ft | 462 kts | 300° |
| 2026-05-06 00:21 | 55.00643 | -9.34205 | 36122 ft | 462 kts | 300° |
| 2026-05-06 00:21 | 55.04042 | -9.43699 | 36122 ft | 462 kts | 300° |
| 2026-05-06 00:22 | 55.07439 | -9.53198 | 36118 ft | 462 kts | 301° |
| 2026-05-06 00:22 | 55.10869 | -9.62685 | 36117 ft | 461 kts | 300° |
| 2026-05-06 00:23 | 55.14230 | -9.72217 | 36116 ft | 460 kts | 300° |
| 2026-05-06 00:23 | 55.17571 | -9.81770 | 36118 ft | 460 kts | 300° |
| 2026-05-06 00:24 | 55.20910 | -9.91338 | 36118 ft | 461 kts | 300° |
| 2026-05-06 00:24 | 55.24247 | -10.00905 | 36122 ft | 460 kts | 300° |
| 2026-05-06 00:25 | 55.27769 | -10.10187 | 36123 ft | 460 kts | 303° |
| 2026-05-06 00:25 | 55.31395 | -10.19459 | 36123 ft | 461 kts | 303° |
| 2026-05-06 00:26 | 55.34983 | -10.28777 | 36122 ft | 460 kts | 303° |
| 2026-05-06 00:26 | 55.38550 | -10.38129 | 36125 ft | 460 kts | 303° |
| 2026-05-06 00:27 | 55.42104 | -10.47503 | 36125 ft | 460 kts | 302° |
| 2026-05-06 00:27 | 55.45706 | -10.56822 | 36125 ft | 461 kts | 303° |
| 2026-05-06 00:28 | 55.49318 | -10.66171 | 36126 ft | 461 kts | 303° |
| 2026-05-06 00:28 | 55.52898 | -10.75568 | 36127 ft | 461 kts | 303° |
| 2026-05-06 00:29 | 55.56459 | -10.84983 | 36127 ft | 461 kts | 303° |
| 2026-05-06 00:29 | 55.60008 | -10.94425 | 36128 ft | 461 kts | 303° |
| 2026-05-06 00:30 | 55.63548 | -11.03886 | 36130 ft | 461 kts | 303° |
| 2026-05-06 00:30 | 55.67077 | -11.13356 | 36131 ft | 461 kts | 303° |
| 2026-05-06 00:31 | 55.70599 | -11.22843 | 36131 ft | 461 kts | 302° |
| 2026-05-06 00:31 | 55.74114 | -11.32347 | 36132 ft | 461 kts | 302° |
| 2026-05-06 00:32 | 55.77623 | -11.41874 | 36132 ft | 461 kts | 302° |
| 2026-05-06 00:32 | 55.81117 | -11.51399 | 36133 ft | 460 kts | 302° |
| 2026-05-06 00:33 | 55.84599 | -11.60925 | 36134 ft | 459 kts | 302° |
| 2026-05-06 00:33 | 55.88074 | -11.70471 | 36134 ft | 460 kts | 302° |
| 2026-05-06 00:34 | 55.91545 | -11.80043 | 36134 ft | 460 kts | 302° |
| 2026-05-06 00:34 | 55.94984 | -11.89560 | 36136 ft | 460 kts | 302° |
| 2026-05-06 00:35 | 55.98459 | -11.99221 | 36135 ft | 460 kts | 302° |
| 2026-05-06 00:35 | 56.01885 | -12.08782 | 36136 ft | 460 kts | 302° |
| 2026-05-06 00:36 | 56.05323 | -12.18414 | 36137 ft | 460 kts | 302° |
| 2026-05-06 00:36 | 56.08751 | -12.28057 | 36137 ft | 459 kts | 302° |
| 2026-05-06 00:37 | 56.12174 | -12.37724 | 36138 ft | 458 kts | 302° |
| 2026-05-06 00:37 | 56.15580 | -12.47381 | 36139 ft | 458 kts | 302° |
| 2026-05-06 00:38 | 56.18978 | -12.57048 | 36138 ft | 457 kts | 302° |
| 2026-05-06 00:38 | 56.22360 | -12.66718 | 36139 ft | 457 kts | 302° |
| 2026-05-06 00:39 | 56.25730 | -12.76388 | 36140 ft | 456 kts | 302° |
| 2026-05-06 00:39 | 56.29091 | -12.86069 | 36141 ft | 456 kts | 302° |
| 2026-05-06 00:40 | 56.32445 | -12.95770 | 36142 ft | 456 kts | 302° |
| 2026-05-06 00:40 | 56.35782 | -13.05461 | 36142 ft | 455 kts | 302° |
| 2026-05-06 00:41 | 56.39111 | -13.15168 | 36143 ft | 454 kts | 302° |
| 2026-05-06 00:41 | 56.42427 | -13.24874 | 36143 ft | 454 kts | 302° |
| 2026-05-06 00:42 | 56.45734 | -13.34595 | 36144 ft | 454 kts | 302° |
| 2026-05-06 00:42 | 56.49034 | -13.44334 | 36144 ft | 454 kts | 302° |
| 2026-05-06 00:43 | 56.52329 | -13.54098 | 36145 ft | 454 kts | 302° |
| 2026-05-06 00:43 | 56.55614 | -13.63873 | 36145 ft | 454 kts | 302° |
| 2026-05-06 00:44 | 56.58894 | -13.73670 | 36146 ft | 454 kts | 302° |
| 2026-05-06 00:44 | 56.62163 | -13.83476 | 36147 ft | 454 kts | 302° |
| 2026-05-06 00:45 | 56.65427 | -13.93308 | 36147 ft | 454 kts | 302° |
| 2026-05-06 00:45 | 56.68652 | -14.03063 | 36149 ft | 453 kts | 302° |
| 2026-05-06 00:46 | 56.71887 | -14.12881 | 36146 ft | 451 kts | 302° |
| 2026-05-06 00:46 | 56.75104 | -14.22694 | 36149 ft | 451 kts | 302° |
| 2026-05-06 00:47 | 56.78316 | -14.32526 | 36150 ft | 451 kts | 302° |
| 2026-05-06 00:47 | 56.81512 | -14.42355 | 36156 ft | 450 kts | 301° |
| 2026-05-06 00:48 | 56.84720 | -14.52159 | 36158 ft | 449 kts | 302° |
| 2026-05-06 00:48 | 56.87920 | -14.61945 | 36159 ft | 448 kts | 301° |
| 2026-05-06 00:49 | 56.91065 | -14.71791 | 36159 ft | 448 kts | 301° |
| 2026-05-06 00:49 | 56.94188 | -14.81633 | 36160 ft | 447 kts | 301° |
| 2026-05-06 00:50 | 56.97306 | -14.91483 | 36161 ft | 447 kts | 301° |
| 2026-05-06 00:50 | 56.99603 | -15.01994 | 36152 ft | 449 kts | 283° |
| 2026-05-06 00:51 | 57.00313 | -15.13424 | 36162 ft | 453 kts | 276° |
| 2026-05-06 00:51 | 57.00509 | -15.25005 | 36164 ft | 454 kts | 274° |
| 2026-05-06 00:52 | 57.00627 | -15.36596 | 36165 ft | 455 kts | 275° |
| 2026-05-06 00:52 | 57.00758 | -15.48200 | 36165 ft | 455 kts | 275° |
| 2026-05-06 00:53 | 57.00889 | -15.59787 | 36166 ft | 454 kts | 275° |
| 2026-05-06 00:53 | 57.01103 | -15.71358 | 36167 ft | 453 kts | 276° |
| 2026-05-06 00:54 | 57.01328 | -15.82914 | 36207 ft | 453 kts | 275° |
| 2026-05-06 00:54 | 57.01502 | -15.94471 | 36212 ft | 454 kts | 275° |
| 2026-05-06 00:55 | 57.01650 | -16.06046 | 36214 ft | 453 kts | 275° |
| 2026-05-06 00:55 | 57.01781 | -16.17532 | 36215 ft | 453 kts | 275° |
| 2026-05-06 00:56 | 57.01900 | -16.29091 | 36216 ft | 453 kts | 275° |
| 2026-05-06 00:56 | 57.02006 | -16.40638 | 36217 ft | 453 kts | 275° |
| 2026-05-06 00:57 | 57.02103 | -16.52214 | 36218 ft | 453 kts | 275° |
| 2026-05-06 00:57 | 57.02188 | -16.63783 | 36219 ft | 453 kts | 275° |
| 2026-05-06 00:58 | 57.02262 | -16.75319 | 36220 ft | 452 kts | 275° |
| 2026-05-06 00:58 | 57.02325 | -16.86851 | 36216 ft | 452 kts | 274° |
| 2026-05-06 00:59 | 57.02377 | -16.98392 | 36202 ft | 452 kts | 275° |
| 2026-05-06 00:59 | 57.02419 | -17.09928 | 36203 ft | 452 kts | 274° |
| 2026-05-06 01:00 | 57.02451 | -17.21472 | 36204 ft | 452 kts | 274° |
| 2026-05-06 01:00 | 57.02472 | -17.32924 | 36205 ft | 452 kts | 274° |
| 2026-05-06 01:01 | 57.02482 | -17.44456 | 36206 ft | 451 kts | 274° |
| 2026-05-06 01:01 | 57.02482 | -17.55974 | 36207 ft | 451 kts | 274° |
| 2026-05-06 01:02 | 57.02471 | -17.67503 | 36207 ft | 452 kts | 274° |
| 2026-05-06 01:02 | 57.02450 | -17.79028 | 36208 ft | 452 kts | 274° |
| 2026-05-06 01:03 | 57.02418 | -17.90559 | 36209 ft | 452 kts | 274° |
| 2026-05-06 01:03 | 57.02375 | -18.02086 | 36211 ft | 452 kts | 274° |
| 2026-05-06 01:04 | 57.02322 | -18.13622 | 36226 ft | 451 kts | 274° |
| 2026-05-06 01:04 | 57.02259 | -18.25121 | 36230 ft | 451 kts | 274° |
| 2026-05-06 01:05 | 57.02185 | -18.36642 | 36231 ft | 451 kts | 274° |
| 2026-05-06 01:05 | 57.02115 | -18.46283 | 36232 ft | 451 kts | 273° |
| 2026-05-06 01:06 | 57.02022 | -18.57807 | 36229 ft | 451 kts | 273° |
| 2026-05-06 01:06 | 57.01918 | -18.69245 | 36234 ft | 451 kts | 273° |
| 2026-05-06 01:07 | 57.01679 | -18.92196 | 36235 ft | 451 kts | 273° |
| 2026-05-06 01:08 | 57.01544 | -19.03698 | 36237 ft | 451 kts | 273° |
| 2026-05-06 01:08 | 57.01397 | -19.15215 | 36238 ft | 452 kts | 273° |
| 2026-05-06 01:09 | 57.01241 | -19.26725 | 36238 ft | 451 kts | 272° |
| 2026-05-06 01:09 | 57.01074 | -19.38212 | 36239 ft | 451 kts | 272° |
| 2026-05-06 01:10 | 57.00964 | -19.49720 | 36241 ft | 451 kts | 273° |
| 2026-05-06 01:10 | 57.00779 | -19.61218 | 36241 ft | 451 kts | 272° |
| 2026-05-06 01:11 | 57.00554 | -19.72728 | 36241 ft | 451 kts | 272° |
| 2026-05-06 01:11 | 57.00321 | -19.84218 | 36242 ft | 451 kts | 272° |
| 2026-05-06 01:12 | 57.00099 | -19.95733 | 36240 ft | 450 kts | 275° |
| 2026-05-06 01:12 | 57.00947 | -20.07008 | 36243 ft | 445 kts | 285° |
| 2026-05-06 01:13 | 57.02439 | -20.17990 | 36244 ft | 442 kts | 288° |
| 2026-05-06 01:13 | 57.04000 | -20.28919 | 36245 ft | 442 kts | 287° |
| 2026-05-06 01:14 | 57.06270 | -20.45335 | 36243 ft | 443 kts | 287° |
| 2026-05-06 01:14 | 57.07754 | -20.56314 | 36248 ft | 443 kts | 287° |
| 2026-05-06 01:15 | 57.09276 | -20.67201 | 36248 ft | 442 kts | 288° |
| 2026-05-06 01:15 | 57.10850 | -20.78136 | 36249 ft | 442 kts | 287° |
| 2026-05-06 01:16 | 57.12374 | -20.89104 | 36250 ft | 442 kts | 287° |
| 2026-05-06 01:16 | 57.13869 | -21.00089 | 36251 ft | 442 kts | 287° |
| 2026-05-06 01:17 | 57.15348 | -21.11096 | 36252 ft | 443 kts | 287° |
| 2026-05-06 01:17 | 57.16811 | -21.22095 | 36252 ft | 443 kts | 287° |
| 2026-05-06 01:18 | 57.18266 | -21.33128 | 36253 ft | 443 kts | 287° |
| 2026-05-06 01:18 | 57.19709 | -21.44155 | 36254 ft | 442 kts | 286° |
| 2026-05-06 01:19 | 57.21141 | -21.55181 | 36255 ft | 442 kts | 286° |
| 2026-05-06 01:19 | 57.22565 | -21.66231 | 36256 ft | 442 kts | 286° |
| 2026-05-06 01:20 | 57.23977 | -21.77262 | 36252 ft | 441 kts | 286° |
| 2026-05-06 01:20 | 57.25376 | -21.88291 | 36257 ft | 441 kts | 286° |
| 2026-05-06 01:21 | 57.26766 | -21.99326 | 36234 ft | 441 kts | 286° |
| 2026-05-06 01:21 | 57.28145 | -22.10367 | 36232 ft | 441 kts | 286° |
| 2026-05-06 01:22 | 57.29516 | -22.21420 | 36232 ft | 441 kts | 286° |
| 2026-05-06 01:22 | 57.30877 | -22.32486 | 36233 ft | 441 kts | 285° |
| 2026-05-06 01:23 | 57.32228 | -22.43553 | 36234 ft | 441 kts | 285° |
| 2026-05-06 01:23 | 57.33571 | -22.54628 | 36233 ft | 441 kts | 285° |
| 2026-05-06 01:24 | 57.34903 | -22.65728 | 36261 ft | 442 kts | 285° |
| 2026-05-06 01:24 | 57.36228 | -22.76845 | 36314 ft | 442 kts | 285° |
| 2026-05-06 01:25 | 57.37543 | -22.87977 | 36318 ft | 443 kts | 285° |
| 2026-05-06 01:25 | 57.38842 | -22.99057 | 36319 ft | 442 kts | 285° |
| 2026-05-06 01:26 | 57.40137 | -23.10194 | 36320 ft | 442 kts | 285° |
| 2026-05-06 01:26 | 57.41423 | -23.21350 | 36321 ft | 442 kts | 285° |
| 2026-05-06 01:27 | 57.42699 | -23.32507 | 36322 ft | 442 kts | 285° |
| 2026-05-06 01:27 | 57.43965 | -23.43673 | 36324 ft | 442 kts | 285° |
| 2026-05-06 01:28 | 57.45220 | -23.54830 | 36325 ft | 442 kts | 284° |
| 2026-05-06 01:28 | 57.46465 | -23.66007 | 36326 ft | 442 kts | 284° |
| 2026-05-06 01:29 | 57.47699 | -23.77176 | 36328 ft | 441 kts | 284° |
| 2026-05-06 01:29 | 57.48919 | -23.88312 | 36329 ft | 440 kts | 284° |
| 2026-05-06 01:30 | 57.50132 | -23.99484 | 36330 ft | 440 kts | 284° |
| 2026-05-06 01:30 | 57.51333 | -24.10649 | 36331 ft | 440 kts | 284° |
| 2026-05-06 01:31 | 57.52526 | -24.21827 | 36333 ft | 441 kts | 284° |
| 2026-05-06 01:31 | 57.53710 | -24.33026 | 36334 ft | 441 kts | 284° |
| 2026-05-06 01:32 | 57.54884 | -24.44221 | 36334 ft | 441 kts | 284° |
| 2026-05-06 01:32 | 57.56047 | -24.55434 | 36336 ft | 442 kts | 284° |
| 2026-05-06 01:33 | 57.57205 | -24.66697 | 36338 ft | 443 kts | 284° |
| 2026-05-06 01:33 | 57.58355 | -24.77975 | 36339 ft | 443 kts | 283° |
| 2026-05-06 01:34 | 57.59495 | -24.89276 | 36340 ft | 444 kts | 283° |
| 2026-05-06 01:34 | 57.60626 | -25.00581 | 36340 ft | 444 kts | 283° |
| 2026-05-06 01:35 | 57.61748 | -25.11908 | 36343 ft | 445 kts | 283° |
| 2026-05-06 01:35 | 57.62862 | -25.23269 | 36344 ft | 445 kts | 283° |
| 2026-05-06 01:36 | 57.63965 | -25.34622 | 36345 ft | 444 kts | 283° |
| 2026-05-06 01:36 | 57.65057 | -25.45981 | 36346 ft | 445 kts | 283° |
| 2026-05-06 01:37 | 57.66130 | -25.57252 | 36347 ft | 444 kts | 283° |
| 2026-05-06 01:37 | 57.67200 | -25.68601 | 36349 ft | 443 kts | 283° |
| 2026-05-06 01:38 | 57.68257 | -25.79927 | 36349 ft | 442 kts | 283° |
| 2026-05-06 01:38 | 57.69304 | -25.91254 | 36351 ft | 442 kts | 283° |
| 2026-05-06 01:39 | 57.70341 | -26.02597 | 36352 ft | 443 kts | 283° |
| 2026-05-06 01:39 | 57.71368 | -26.13950 | 36354 ft | 443 kts | 283° |
| 2026-05-06 01:40 | 57.72385 | -26.25308 | 36355 ft | 443 kts | 282° |
| 2026-05-06 01:40 | 57.73395 | -26.36707 | 36356 ft | 444 kts | 282° |
| 2026-05-06 01:41 | 57.74394 | -26.48106 | 36357 ft | 445 kts | 282° |
| 2026-05-06 01:41 | 57.75387 | -26.59544 | 36358 ft | 445 kts | 282° |
| 2026-05-06 01:42 | 57.76369 | -26.71009 | 36360 ft | 447 kts | 282° |
| 2026-05-06 01:42 | 57.77345 | -26.82516 | 36361 ft | 448 kts | 282° |
| 2026-05-06 01:43 | 57.78312 | -26.94054 | 36362 ft | 448 kts | 281° |
| 2026-05-06 01:43 | 57.79271 | -27.05614 | 36363 ft | 449 kts | 281° |
| 2026-05-06 01:44 | 57.80220 | -27.17197 | 36366 ft | 450 kts | 281° |
| 2026-05-06 01:44 | 57.81159 | -27.28789 | 36367 ft | 450 kts | 281° |
| 2026-05-06 01:45 | 57.82087 | -27.40389 | 36369 ft | 451 kts | 281° |
| 2026-05-06 01:45 | 57.83008 | -27.52038 | 36406 ft | 450 kts | 281° |
| 2026-05-06 01:46 | 57.83916 | -27.63660 | 36424 ft | 451 kts | 281° |
| 2026-05-06 01:46 | 57.84811 | -27.75227 | 36420 ft | 450 kts | 281° |
| 2026-05-06 01:47 | 57.85695 | -27.86836 | 36426 ft | 449 kts | 280° |
| 2026-05-06 01:47 | 57.86570 | -27.98474 | 36427 ft | 450 kts | 280° |
| 2026-05-06 01:48 | 57.87435 | -28.10112 | 36428 ft | 450 kts | 280° |
| 2026-05-06 01:48 | 57.88288 | -28.21739 | 36429 ft | 450 kts | 280° |
| 2026-05-06 01:49 | 57.89134 | -28.33408 | 36430 ft | 451 kts | 280° |
| 2026-05-06 01:49 | 57.89885 | -28.43919 | 36431 ft | 451 kts | 280° |
| 2026-05-06 01:50 | 57.90705 | -28.55527 | 36432 ft | 452 kts | 279° |
| 2026-05-06 01:50 | 57.91523 | -28.67267 | 36433 ft | 453 kts | 279° |
| 2026-05-06 01:51 | 57.92333 | -28.79055 | 36415 ft | 455 kts | 279° |
| 2026-05-06 01:51 | 57.93135 | -28.90888 | 36413 ft | 456 kts | 279° |
| 2026-05-06 01:52 | 57.93927 | -29.02738 | 36414 ft | 457 kts | 279° |
| 2026-05-06 01:52 | 57.94711 | -29.14645 | 36415 ft | 458 kts | 279° |
| 2026-05-06 01:53 | 57.95485 | -29.26575 | 36416 ft | 459 kts | 278° |
| 2026-05-06 01:53 | 57.96248 | -29.38510 | 36417 ft | 460 kts | 278° |
| 2026-05-06 01:54 | 57.97075 | -29.50446 | 36416 ft | 460 kts | 279° |
| 2026-05-06 01:54 | 57.97811 | -29.62444 | 36408 ft | 460 kts | 278° |
| 2026-05-06 01:55 | 57.98515 | -29.74427 | 36409 ft | 460 kts | 278° |
| 2026-05-06 01:55 | 57.99211 | -29.86409 | 36410 ft | 460 kts | 278° |
| 2026-05-06 01:56 | 57.99909 | -29.98403 | 36411 ft | 460 kts | 278° |
| 2026-05-06 01:56 | 58.00459 | -30.10408 | 36412 ft | 460 kts | 276° |
| 2026-05-06 01:57 | 58.00851 | -30.22457 | 36412 ft | 461 kts | 275° |
| 2026-05-06 01:57 | 58.01242 | -30.34524 | 36414 ft | 461 kts | 275° |
| 2026-05-06 01:58 | 58.01626 | -30.46574 | 36414 ft | 460 kts | 275° |
| 2026-05-06 01:58 | 58.02000 | -30.58645 | 36415 ft | 460 kts | 275° |
| 2026-05-06 01:59 | 58.02423 | -30.70686 | 36415 ft | 460 kts | 276° |
| 2026-05-06 01:59 | 58.02909 | -30.82670 | 36416 ft | 461 kts | 276° |
| 2026-05-06 02:00 | 58.03335 | -30.94760 | 36418 ft | 462 kts | 275° |
| 2026-05-06 02:00 | 58.03730 | -31.06883 | 36418 ft | 463 kts | 275° |
| 2026-05-06 02:01 | 58.04106 | -31.19045 | 36421 ft | 465 kts | 275° |
| 2026-05-06 02:01 | 58.04468 | -31.31258 | 36422 ft | 467 kts | 275° |
| 2026-05-06 02:02 | 58.04818 | -31.43520 | 36423 ft | 469 kts | 274° |
| 2026-05-06 02:02 | 58.05156 | -31.55830 | 36424 ft | 471 kts | 274° |
| 2026-05-06 02:03 | 58.05484 | -31.68187 | 36425 ft | 472 kts | 274° |
| 2026-05-06 02:03 | 58.05801 | -31.80577 | 36426 ft | 473 kts | 274° |
| 2026-05-06 02:04 | 58.06104 | -31.92927 | 36427 ft | 474 kts | 274° |
| 2026-05-06 02:04 | 58.06397 | -32.05363 | 36427 ft | 474 kts | 273° |
| 2026-05-06 02:05 | 58.06679 | -32.17799 | 36428 ft | 474 kts | 273° |
| 2026-05-06 02:05 | 58.06948 | -32.30240 | 36429 ft | 474 kts | 273° |
| 2026-05-06 02:06 | 58.07206 | -32.42681 | 36426 ft | 473 kts | 273° |
| 2026-05-06 02:06 | 58.07452 | -32.55097 | 36429 ft | 473 kts | 273° |
| 2026-05-06 02:07 | 58.07682 | -32.67503 | 36431 ft | 473 kts | 273° |
| 2026-05-06 02:07 | 58.07902 | -32.79926 | 36433 ft | 473 kts | 273° |
| 2026-05-06 02:08 | 58.08111 | -32.92345 | 36433 ft | 473 kts | 272° |
| 2026-05-06 02:08 | 58.08306 | -33.04774 | 36433 ft | 474 kts | 272° |
| 2026-05-06 02:09 | 58.08491 | -33.17229 | 36434 ft | 475 kts | 272° |
| 2026-05-06 02:09 | 58.08665 | -33.29718 | 36432 ft | 476 kts | 272° |
| 2026-05-06 02:10 | 58.08825 | -33.42228 | 36436 ft | 477 kts | 271° |
| 2026-05-06 02:10 | 58.08973 | -33.54780 | 36436 ft | 478 kts | 271° |
| 2026-05-06 02:11 | 58.09110 | -33.67362 | 36438 ft | 480 kts | 271° |
| 2026-05-06 02:11 | 58.09234 | -33.79969 | 36438 ft | 480 kts | 271° |
| 2026-05-06 02:12 | 58.09347 | -33.92608 | 36439 ft | 481 kts | 271° |
| 2026-05-06 02:12 | 58.09447 | -34.05255 | 36439 ft | 481 kts | 270° |
| 2026-05-06 02:13 | 58.09534 | -34.17903 | 36440 ft | 481 kts | 270° |
| 2026-05-06 02:13 | 58.09611 | -34.30550 | 36438 ft | 481 kts | 270° |
| 2026-05-06 02:14 | 58.09672 | -34.43172 | 36441 ft | 481 kts | 270° |
| 2026-05-06 02:14 | 58.09722 | -34.55828 | 36442 ft | 481 kts | 270° |
| 2026-05-06 02:15 | 58.09760 | -34.68473 | 36443 ft | 482 kts | 270° |
| 2026-05-06 02:15 | 58.09784 | -34.81152 | 36444 ft | 482 kts | 270° |
| 2026-05-06 02:16 | 58.09798 | -34.93827 | 36444 ft | 482 kts | 270° |
| 2026-05-06 02:16 | 58.09797 | -35.06444 | 36444 ft | 484 kts | 270° |
| 2026-05-06 02:17 | 58.09784 | -35.19190 | 36445 ft | 486 kts | 270° |
| 2026-05-06 02:17 | 58.09758 | -35.32008 | 36446 ft | 488 kts | 269° |
| 2026-05-06 02:18 | 58.09720 | -35.44864 | 36446 ft | 490 kts | 269° |
| 2026-05-06 02:18 | 58.09668 | -35.57768 | 36446 ft | 492 kts | 269° |
| 2026-05-06 02:19 | 58.09603 | -35.70707 | 36447 ft | 493 kts | 269° |
| 2026-05-06 02:19 | 58.09525 | -35.83677 | 36447 ft | 494 kts | 269° |
| 2026-05-06 02:20 | 58.09382 | -36.03172 | 36448 ft | 495 kts | 268° |
| 2026-05-06 02:21 | 58.09270 | -36.16179 | 36448 ft | 495 kts | 268° |
| 2026-05-06 02:21 | 58.09145 | -36.29168 | 36448 ft | 495 kts | 268° |
| 2026-05-06 02:22 | 58.09007 | -36.42181 | 36449 ft | 495 kts | 268° |
| 2026-05-06 02:22 | 58.08855 | -36.55171 | 36449 ft | 495 kts | 268° |
| 2026-05-06 02:23 | 58.08691 | -36.68189 | 36450 ft | 495 kts | 268° |
| 2026-05-06 02:23 | 58.08515 | -36.81107 | 36453 ft | 495 kts | 268° |
| 2026-05-06 02:24 | 58.08325 | -36.94134 | 36447 ft | 496 kts | 268° |
| 2026-05-06 02:24 | 58.08118 | -37.07194 | 36442 ft | 498 kts | 267° |
| 2026-05-06 02:25 | 58.07898 | -37.20285 | 36404 ft | 500 kts | 267° |
| 2026-05-06 02:25 | 58.07664 | -37.33429 | 36369 ft | 501 kts | 267° |
| 2026-05-06 02:26 | 58.07416 | -37.46618 | 36366 ft | 503 kts | 266° |
| 2026-05-06 02:26 | 58.07154 | -37.59854 | 36364 ft | 505 kts | 266° |
| 2026-05-06 02:27 | 58.06876 | -37.73134 | 36363 ft | 507 kts | 266° |
| 2026-05-06 02:27 | 58.06584 | -37.86434 | 36361 ft | 507 kts | 266° |
| 2026-05-06 02:28 | 58.06278 | -37.99756 | 36360 ft | 508 kts | 265° |
| 2026-05-06 02:28 | 58.06014 | -38.10799 | 36359 ft | 508 kts | 265° |
| 2026-05-06 02:29 | 58.05682 | -38.24131 | 36357 ft | 507 kts | 265° |
| 2026-05-06 02:29 | 58.05337 | -38.37442 | 36355 ft | 507 kts | 265° |
| 2026-05-06 02:30 | 58.04978 | -38.50727 | 36354 ft | 507 kts | 265° |
| 2026-05-06 02:30 | 58.04606 | -38.64002 | 36353 ft | 507 kts | 265° |
| 2026-05-06 02:31 | 58.04219 | -38.77316 | 36351 ft | 508 kts | 265° |
| 2026-05-06 02:31 | 58.03818 | -38.90628 | 36349 ft | 508 kts | 265° |
| 2026-05-06 02:32 | 58.03404 | -39.03936 | 36348 ft | 509 kts | 265° |
| 2026-05-06 02:32 | 58.02973 | -39.17297 | 36346 ft | 510 kts | 264° |
| 2026-05-06 02:33 | 58.02528 | -39.30680 | 36346 ft | 512 kts | 264° |
| 2026-05-06 02:33 | 58.02378 | -39.35111 | 36345 ft | 512 kts | 264° |
| 2026-05-06 02:34 | 58.01671 | -39.57529 | 36342 ft | 514 kts | 264° |
| 2026-05-06 02:34 | 58.01150 | -39.71013 | 36341 ft | 515 kts | 263° |
| 2026-05-06 02:35 | 58.00616 | -39.84491 | 36339 ft | 516 kts | 263° |
| 2026-05-06 02:35 | 58.00106 | -39.97898 | 36335 ft | 517 kts | 265° |
| 2026-05-06 02:36 | 58.00296 | -40.11464 | 36337 ft | 519 kts | 271° |
| 2026-05-06 02:36 | 58.00842 | -40.25032 | 36335 ft | 519 kts | 272° |
| 2026-05-06 02:37 | 58.01339 | -40.38629 | 36334 ft | 519 kts | 272° |
| 2026-05-06 02:37 | 58.01789 | -40.52212 | 36332 ft | 519 kts | 271° |
| 2026-05-06 02:38 | 58.02215 | -40.65793 | 36330 ft | 519 kts | 272° |
| 2026-05-06 02:38 | 58.02775 | -40.79383 | 36329 ft | 520 kts | 272° |
| 2026-05-06 02:39 | 58.03273 | -40.93018 | 36328 ft | 522 kts | 272° |
| 2026-05-06 02:39 | 58.03723 | -41.06695 | 36326 ft | 522 kts | 271° |
| 2026-05-06 02:40 | 58.04145 | -41.20389 | 36325 ft | 524 kts | 271° |
| 2026-05-06 02:40 | 58.04550 | -41.34131 | 36325 ft | 525 kts | 271° |
| 2026-05-06 02:41 | 58.04939 | -41.47928 | 36323 ft | 527 kts | 271° |
| 2026-05-06 02:41 | 58.05314 | -41.61770 | 36321 ft | 528 kts | 271° |
| 2026-05-06 02:42 | 58.05675 | -41.75655 | 36321 ft | 530 kts | 270° |
| 2026-05-06 02:42 | 58.06019 | -41.89466 | 36318 ft | 530 kts | 270° |
| 2026-05-06 02:43 | 58.06350 | -42.03393 | 36318 ft | 531 kts | 270° |
| 2026-05-06 02:43 | 58.06667 | -42.17345 | 36317 ft | 531 kts | 270° |
| 2026-05-06 02:44 | 58.06969 | -42.31280 | 36280 ft | 530 kts | 270° |
| 2026-05-06 02:44 | 58.07254 | -42.45187 | 36271 ft | 530 kts | 270° |
| 2026-05-06 02:45 | 58.07524 | -42.59096 | 36273 ft | 530 kts | 270° |
| 2026-05-06 02:45 | 58.07779 | -42.72989 | 36271 ft | 529 kts | 270° |
| 2026-05-06 02:46 | 58.08018 | -42.86860 | 36271 ft | 528 kts | 270° |
| 2026-05-06 02:46 | 58.08242 | -43.00725 | 36269 ft | 528 kts | 270° |
| 2026-05-06 02:47 | 58.08451 | -43.14580 | 36269 ft | 527 kts | 269° |
| 2026-05-06 02:47 | 58.08645 | -43.28433 | 36267 ft | 527 kts | 269° |
| 2026-05-06 02:48 | 58.08823 | -43.42275 | 36267 ft | 527 kts | 269° |
| 2026-05-06 02:48 | 58.08987 | -43.56113 | 36266 ft | 526 kts | 269° |
| 2026-05-06 02:49 | 58.09135 | -43.69848 | 36265 ft | 526 kts | 269° |
| 2026-05-06 02:49 | 58.09269 | -43.83670 | 36266 ft | 526 kts | 269° |
| 2026-05-06 02:50 | 58.09386 | -43.97520 | 36263 ft | 527 kts | 269° |
| 2026-05-06 02:50 | 58.09490 | -44.11371 | 36262 ft | 527 kts | 269° |
| 2026-05-06 02:51 | 58.09578 | -44.25212 | 36261 ft | 527 kts | 268° |
| 2026-05-06 02:51 | 58.09652 | -44.39063 | 36261 ft | 527 kts | 268° |
| 2026-05-06 02:52 | 58.09711 | -44.52925 | 36259 ft | 527 kts | 268° |
| 2026-05-06 02:52 | 58.09754 | -44.66767 | 36259 ft | 527 kts | 268° |
| 2026-05-06 02:53 | 58.09783 | -44.80628 | 36258 ft | 527 kts | 268° |
| 2026-05-06 02:53 | 58.09796 | -44.94489 | 36257 ft | 528 kts | 268° |
| 2026-05-06 02:54 | 58.09795 | -45.08379 | 36256 ft | 528 kts | 268° |
| 2026-05-06 02:54 | 58.09778 | -45.22257 | 36275 ft | 528 kts | 268° |
| 2026-05-06 02:55 | 58.09746 | -45.36135 | 36276 ft | 528 kts | 268° |
| 2026-05-06 02:55 | 58.09700 | -45.50002 | 36243 ft | 528 kts | 268° |
| 2026-05-06 02:56 | 58.09638 | -45.63893 | 36224 ft | 528 kts | 268° |
| 2026-05-06 02:56 | 58.09561 | -45.77775 | 36223 ft | 528 kts | 268° |
| 2026-05-06 02:57 | 58.09469 | -45.91560 | 36222 ft | 528 kts | 267° |
| 2026-05-06 02:57 | 58.09363 | -46.05423 | 36221 ft | 527 kts | 267° |
| 2026-05-06 02:58 | 58.09240 | -46.19284 | 36220 ft | 528 kts | 267° |
| 2026-05-06 02:58 | 58.09104 | -46.33152 | 36219 ft | 528 kts | 267° |
| 2026-05-06 02:59 | 58.08951 | -46.47029 | 36218 ft | 528 kts | 267° |
| 2026-05-06 02:59 | 58.08784 | -46.60923 | 36559 ft | 528 kts | 266° |
| 2026-05-06 02:59 | 58.08694 | -46.67855 | 36829 ft | 529 kts | 266° |
| 2026-05-06 03:00 | 58.08601 | -46.74806 | 37083 ft | 528 kts | 266° |
| 2026-05-06 03:00 | 58.08505 | -46.81720 | 37432 ft | 526 kts | 266° |
| 2026-05-06 03:00 | 58.08405 | -46.88611 | 37768 ft | 523 kts | 266° |
| 2026-05-06 03:00 | 58.08302 | -46.95487 | 37998 ft | 523 kts | 266° |
| 2026-05-06 03:01 | 58.08194 | -47.02360 | 38189 ft | 524 kts | 266° |
| 2026-05-06 03:01 | 58.07968 | -47.16132 | 38212 ft | 524 kts | 266° |
| 2026-05-06 03:02 | 58.07728 | -47.29897 | 38210 ft | 524 kts | 265° |
| 2026-05-06 03:02 | 58.07473 | -47.43658 | 38208 ft | 524 kts | 265° |
| 2026-05-06 03:03 | 58.07203 | -47.57407 | 38207 ft | 524 kts | 265° |
| 2026-05-06 03:03 | 58.06920 | -47.71082 | 38205 ft | 524 kts | 265° |
| 2026-05-06 03:04 | 58.06618 | -47.84931 | 38204 ft | 525 kts | 264° |
| 2026-05-06 03:04 | 58.06305 | -47.98597 | 38202 ft | 524 kts | 264° |
| 2026-05-06 03:05 | 58.05976 | -48.12326 | 38200 ft | 524 kts | 264° |
| 2026-05-06 03:05 | 58.05632 | -48.26070 | 38198 ft | 524 kts | 264° |
| 2026-05-06 03:06 | 58.05273 | -48.39816 | 38196 ft | 525 kts | 264° |
| 2026-05-06 03:06 | 58.04899 | -48.53578 | 38194 ft | 524 kts | 264° |
| 2026-05-06 03:07 | 58.04512 | -48.67297 | 38192 ft | 524 kts | 264° |
| 2026-05-06 03:07 | 58.04109 | -48.81036 | 38189 ft | 523 kts | 264° |
| 2026-05-06 03:08 | 58.03691 | -48.94748 | 38187 ft | 523 kts | 264° |
| 2026-05-06 03:08 | 58.03263 | -49.08356 | 38185 ft | 523 kts | 264° |
| 2026-05-06 03:09 | 58.02817 | -49.22038 | 38183 ft | 522 kts | 263° |
| 2026-05-06 03:09 | 58.02358 | -49.35680 | 38180 ft | 521 kts | 263° |
| 2026-05-06 03:10 | 58.01957 | -49.49315 | 38178 ft | 520 kts | 263° |
| 2026-05-06 03:10 | 58.01465 | -49.62923 | 38176 ft | 520 kts | 263° |
| 2026-05-06 03:11 | 58.00933 | -49.76508 | 38173 ft | 519 kts | 263° |
| 2026-05-06 03:11 | 58.00394 | -49.90074 | 38172 ft | 518 kts | 263° |
| 2026-05-06 03:12 | 57.99846 | -50.03606 | 38168 ft | 518 kts | 262° |
| 2026-05-06 03:12 | 57.99137 | -50.17113 | 38166 ft | 518 kts | 261° |
| 2026-05-06 03:13 | 57.98393 | -50.30607 | 38163 ft | 517 kts | 261° |
| 2026-05-06 03:13 | 57.97639 | -50.44062 | 38160 ft | 516 kts | 261° |
| 2026-05-06 03:14 | 57.96871 | -50.57478 | 38155 ft | 515 kts | 261° |
| 2026-05-06 03:14 | 57.96147 | -50.70892 | 38109 ft | 514 kts | 262° |
| 2026-05-06 03:15 | 57.95501 | -50.84278 | 38103 ft | 513 kts | 262° |
| 2026-05-06 03:15 | 57.94784 | -50.97620 | 38098 ft | 512 kts | 261° |
| 2026-05-06 03:16 | 57.94031 | -51.10931 | 38094 ft | 511 kts | 261° |
| 2026-05-06 03:16 | 57.93258 | -51.24204 | 38089 ft | 511 kts | 261° |
| 2026-05-06 03:17 | 57.92473 | -51.37390 | 38085 ft | 510 kts | 261° |
| 2026-05-06 03:17 | 57.91669 | -51.50635 | 38081 ft | 510 kts | 261° |
| 2026-05-06 03:18 | 57.90850 | -51.63886 | 38076 ft | 510 kts | 261° |
| 2026-05-06 03:18 | 57.90018 | -51.77133 | 38032 ft | 511 kts | 261° |
| 2026-05-06 03:19 | 57.89170 | -51.90386 | 37957 ft | 511 kts | 261° |
| 2026-05-06 03:19 | 57.88309 | -52.03636 | 37950 ft | 511 kts | 260° |
| 2026-05-06 03:20 | 57.86989 | -52.23527 | 37946 ft | 511 kts | 260° |
| 2026-05-06 03:20 | 57.86093 | -52.36762 | 37943 ft | 510 kts | 260° |
| 2026-05-06 03:21 | 57.85339 | -52.47730 | 37941 ft | 509 kts | 260° |
| 2026-05-06 03:21 | 57.84422 | -52.60898 | 37939 ft | 508 kts | 260° |
| 2026-05-06 03:22 | 57.83493 | -52.74035 | 37936 ft | 507 kts | 260° |
| 2026-05-06 03:22 | 57.82552 | -52.87137 | 37949 ft | 506 kts | 260° |
| 2026-05-06 03:23 | 57.81600 | -53.00202 | 37947 ft | 505 kts | 260° |
| 2026-05-06 03:23 | 57.80636 | -53.13244 | 37945 ft | 505 kts | 260° |
| 2026-05-06 03:24 | 57.79660 | -53.26266 | 37943 ft | 504 kts | 260° |
| 2026-05-06 03:24 | 57.78677 | -53.39168 | 37924 ft | 496 kts | 261° |
| 2026-05-06 03:25 | 57.77693 | -53.51940 | 37922 ft | 496 kts | 261° |
| 2026-05-06 03:25 | 57.76692 | -53.64748 | 37919 ft | 498 kts | 260° |
| 2026-05-06 03:26 | 57.75676 | -53.77574 | 37917 ft | 498 kts | 260° |
| 2026-05-06 03:26 | 57.74646 | -53.90404 | 37915 ft | 498 kts | 260° |
| 2026-05-06 03:27 | 57.73603 | -54.03230 | 37912 ft | 499 kts | 260° |
| 2026-05-06 03:27 | 57.72547 | -54.16047 | 37910 ft | 498 kts | 260° |
| 2026-05-06 03:28 | 57.71479 | -54.28842 | 37907 ft | 497 kts | 259° |
| 2026-05-06 03:28 | 57.70400 | -54.41611 | 37905 ft | 497 kts | 259° |
| 2026-05-06 03:29 | 57.69311 | -54.54339 | 37902 ft | 495 kts | 259° |
| 2026-05-06 03:29 | 57.68211 | -54.67044 | 37893 ft | 494 kts | 259° |
| 2026-05-06 03:30 | 57.67109 | -54.79617 | 37889 ft | 493 kts | 259° |
| 2026-05-06 03:30 | 57.65989 | -54.92237 | 37887 ft | 492 kts | 259° |
| 2026-05-06 03:31 | 57.64858 | -55.04846 | 37885 ft | 492 kts | 259° |
| 2026-05-06 03:31 | 57.63714 | -55.17439 | 37869 ft | 492 kts | 259° |
| 2026-05-06 03:32 | 57.62558 | -55.30026 | 37770 ft | 492 kts | 259° |
| 2026-05-06 03:32 | 57.61391 | -55.42583 | 37751 ft | 491 kts | 258° |
| 2026-05-06 03:33 | 57.60212 | -55.55135 | 37749 ft | 492 kts | 258° |
| 2026-05-06 03:33 | 57.59017 | -55.67703 | 37746 ft | 493 kts | 258° |
| 2026-05-06 03:34 | 57.57809 | -55.80286 | 37744 ft | 493 kts | 258° |
| 2026-05-06 03:34 | 57.56588 | -55.92860 | 37731 ft | 493 kts | 258° |
| 2026-05-06 03:35 | 57.55354 | -56.05425 | 37726 ft | 493 kts | 258° |
| 2026-05-06 03:35 | 57.54108 | -56.17973 | 37724 ft | 493 kts | 258° |
| 2026-05-06 03:36 | 57.52852 | -56.30492 | 37722 ft | 492 kts | 258° |
| 2026-05-06 03:36 | 57.51585 | -56.43000 | 37720 ft | 491 kts | 257° |
| 2026-05-06 03:37 | 57.50309 | -56.55461 | 37719 ft | 490 kts | 257° |
| 2026-05-06 03:37 | 57.49023 | -56.67886 | 37717 ft | 489 kts | 257° |
| 2026-05-06 03:38 | 57.47727 | -56.80281 | 37715 ft | 488 kts | 257° |
| 2026-05-06 03:38 | 57.46421 | -56.92648 | 37713 ft | 488 kts | 257° |
| 2026-05-06 03:39 | 57.45113 | -57.04914 | 37711 ft | 487 kts | 257° |
| 2026-05-06 03:39 | 57.43785 | -57.17249 | 37652 ft | 487 kts | 257° |
| 2026-05-06 03:40 | 57.42447 | -57.29560 | 37648 ft | 487 kts | 256° |
| 2026-05-06 03:40 | 57.41095 | -57.41874 | 37644 ft | 488 kts | 256° |
| 2026-05-06 03:41 | 57.39728 | -57.54204 | 37642 ft | 488 kts | 256° |
| 2026-05-06 03:41 | 57.38349 | -57.66527 | 37640 ft | 488 kts | 256° |
| 2026-05-06 03:42 | 57.36956 | -57.78856 | 37638 ft | 489 kts | 256° |
| 2026-05-06 03:42 | 57.35551 | -57.91172 | 37637 ft | 489 kts | 256° |
| 2026-05-06 03:43 | 57.34136 | -58.03475 | 37634 ft | 488 kts | 256° |
| 2026-05-06 03:43 | 57.32709 | -58.15755 | 37632 ft | 488 kts | 255° |
| 2026-05-06 03:44 | 57.31271 | -58.28021 | 37630 ft | 487 kts | 255° |
| 2026-05-06 03:44 | 57.29823 | -58.40270 | 37628 ft | 487 kts | 255° |
| 2026-05-06 03:45 | 57.28365 | -58.52488 | 37626 ft | 486 kts | 255° |
| 2026-05-06 03:45 | 57.26946 | -58.64612 | 37624 ft | 486 kts | 256° |
| 2026-05-06 03:46 | 57.25501 | -58.76795 | 37622 ft | 485 kts | 255° |
| 2026-05-06 03:46 | 57.23991 | -58.88921 | 37620 ft | 484 kts | 255° |
| 2026-05-06 03:47 | 57.22467 | -59.01038 | 37618 ft | 484 kts | 255° |
| 2026-05-06 03:47 | 57.20943 | -59.13133 | 37616 ft | 484 kts | 254° |
| 2026-05-06 03:48 | 57.18724 | -59.24799 | 37613 ft | 481 kts | 244° |
| 2026-05-06 03:48 | 57.15876 | -59.35932 | 37612 ft | 480 kts | 242° |
| 2026-05-06 03:49 | 57.12957 | -59.46960 | 37610 ft | 479 kts | 242° |
| 2026-05-06 03:49 | 57.10066 | -59.58010 | 37608 ft | 479 kts | 242° |
| 2026-05-06 03:50 | 57.07182 | -59.69045 | 37606 ft | 479 kts | 242° |
| 2026-05-06 03:50 | 57.04335 | -59.80105 | 37604 ft | 479 kts | 243° |
| 2026-05-06 03:51 | 57.01535 | -59.91186 | 37602 ft | 478 kts | 243° |
| 2026-05-06 03:51 | 56.98686 | -60.02205 | 37599 ft | 477 kts | 242° |
| 2026-05-06 03:52 | 56.95818 | -60.13175 | 37598 ft | 477 kts | 242° |
| 2026-05-06 03:52 | 56.92939 | -60.24111 | 37595 ft | 476 kts | 242° |
| 2026-05-06 03:53 | 56.90053 | -60.35012 | 37594 ft | 476 kts | 242° |
| 2026-05-06 03:53 | 56.87163 | -60.45876 | 37581 ft | 475 kts | 242° |
| 2026-05-06 03:54 | 56.84264 | -60.56721 | 37519 ft | 475 kts | 242° |
| 2026-05-06 03:54 | 56.81359 | -60.67535 | 37515 ft | 474 kts | 242° |
| 2026-05-06 03:55 | 56.78465 | -60.78259 | 37513 ft | 474 kts | 241° |
| 2026-05-06 03:55 | 56.75546 | -60.89025 | 37511 ft | 474 kts | 241° |
| 2026-05-06 03:56 | 56.72621 | -60.99761 | 37510 ft | 473 kts | 241° |
| 2026-05-06 03:56 | 56.69687 | -61.10483 | 37507 ft | 473 kts | 241° |
| 2026-05-06 03:57 | 56.66781 | -61.21203 | 37507 ft | 473 kts | 242° |
| 2026-05-06 03:57 | 56.63857 | -61.31901 | 37506 ft | 472 kts | 240° |
| 2026-05-06 03:58 | 56.60893 | -61.42495 | 37504 ft | 470 kts | 240° |
| 2026-05-06 03:58 | 56.57922 | -61.53056 | 37503 ft | 469 kts | 240° |
| 2026-05-06 03:59 | 56.54953 | -61.63594 | 37499 ft | 468 kts | 240° |
| 2026-05-06 03:59 | 56.51971 | -61.74059 | 37497 ft | 466 kts | 239° |
| 2026-05-06 04:00 | 56.48861 | -61.84315 | 37503 ft | 464 kts | 238° |
| 2026-05-06 04:00 | 56.45738 | -61.94544 | 37501 ft | 464 kts | 238° |
| 2026-05-06 04:01 | 56.42620 | -62.04745 | 37495 ft | 464 kts | 238° |
| 2026-05-06 04:01 | 56.39492 | -62.14928 | 37494 ft | 463 kts | 238° |
| 2026-05-06 04:02 | 56.36367 | -62.25083 | 37495 ft | 463 kts | 239° |
| 2026-05-06 04:02 | 56.33320 | -62.35353 | 37491 ft | 465 kts | 239° |
| 2026-05-06 04:03 | 56.30225 | -62.45604 | 37499 ft | 465 kts | 239° |
| 2026-05-06 04:03 | 56.27105 | -62.55823 | 37488 ft | 466 kts | 238° |
| 2026-05-06 04:04 | 56.23959 | -62.66021 | 37489 ft | 467 kts | 238° |
| 2026-05-06 04:04 | 56.20782 | -62.76249 | 37480 ft | 469 kts | 238° |
| 2026-05-06 04:05 | 56.17598 | -62.86468 | 37486 ft | 470 kts | 238° |
| 2026-05-06 04:05 | 56.14391 | -62.96700 | 37480 ft | 471 kts | 238° |
| 2026-05-06 04:06 | 56.11176 | -63.06922 | 37479 ft | 471 kts | 238° |
| 2026-05-06 04:06 | 56.07975 | -63.17073 | 37471 ft | 471 kts | 238° |
| 2026-05-06 04:07 | 56.04748 | -63.27233 | 37491 ft | 470 kts | 238° |
| 2026-05-06 04:07 | 56.01501 | -63.37429 | 37469 ft | 471 kts | 238° |
| 2026-05-06 04:08 | 55.98263 | -63.47545 | 37480 ft | 462 kts | 237° |
| 2026-05-06 04:08 | 55.95059 | -63.57498 | 37478 ft | 464 kts | 238° |
| 2026-05-06 04:09 | 55.91830 | -63.67512 | 37479 ft | 467 kts | 237° |
| 2026-05-06 04:09 | 55.88579 | -63.77553 | 37476 ft | 469 kts | 237° |
| 2026-05-06 04:10 | 55.85310 | -63.87597 | 37474 ft | 468 kts | 237° |
| 2026-05-06 04:10 | 55.82031 | -63.97627 | 37474 ft | 470 kts | 237° |
| 2026-05-06 04:11 | 55.78767 | -64.07581 | 37465 ft | 469 kts | 237° |
| 2026-05-06 04:11 | 55.75475 | -64.17567 | 37404 ft | 468 kts | 237° |
| 2026-05-06 04:12 | 55.72192 | -64.27489 | 37388 ft | 465 kts | 237° |
| 2026-05-06 04:12 | 55.69439 | -64.35779 | 37383 ft | 465 kts | 237° |
| 2026-05-06 04:13 | 55.66143 | -64.45664 | 37390 ft | 467 kts | 237° |
| 2026-05-06 04:13 | 55.62867 | -64.55449 | 37385 ft | 464 kts | 237° |
| 2026-05-06 04:14 | 55.59575 | -64.65254 | 37383 ft | 464 kts | 237° |
| 2026-05-06 04:14 | 55.56274 | -64.75044 | 37377 ft | 463 kts | 237° |
| 2026-05-06 04:15 | 55.52968 | -64.84802 | 37381 ft | 463 kts | 237° |
| 2026-05-06 04:15 | 55.49658 | -64.94532 | 37373 ft | 462 kts | 237° |
| 2026-05-06 04:16 | 55.46334 | -65.04256 | 37345 ft | 462 kts | 237° |
| 2026-05-06 04:16 | 55.43021 | -65.13917 | 37380 ft | 462 kts | 237° |
| 2026-05-06 04:17 | 55.39678 | -65.23629 | 37369 ft | 464 kts | 237° |
| 2026-05-06 04:17 | 55.36326 | -65.33324 | 37367 ft | 463 kts | 236° |
| 2026-05-06 04:18 | 55.32972 | -65.42990 | 37365 ft | 463 kts | 236° |
| 2026-05-06 04:18 | 55.29606 | -65.52651 | 37363 ft | 464 kts | 236° |
| 2026-05-06 04:19 | 55.26228 | -65.62309 | 37361 ft | 465 kts | 236° |
| 2026-05-06 04:19 | 55.22862 | -65.71894 | 37358 ft | 464 kts | 236° |
| 2026-05-06 04:20 | 55.19469 | -65.81517 | 37356 ft | 464 kts | 236° |
| 2026-05-06 04:20 | 55.16068 | -65.91126 | 37353 ft | 464 kts | 236° |
| 2026-05-06 04:21 | 55.12663 | -66.00709 | 37351 ft | 463 kts | 236° |
| 2026-05-06 04:21 | 55.09245 | -66.10291 | 37350 ft | 467 kts | 236° |
| 2026-05-06 04:22 | 55.05801 | -66.19907 | 37348 ft | 467 kts | 236° |
| 2026-05-06 04:23 | 55.00632 | -66.34272 | 37344 ft | 465 kts | 236° |
| 2026-05-06 04:23 | 54.97181 | -66.43814 | 37343 ft | 465 kts | 236° |
| 2026-05-06 04:24 | 54.93725 | -66.53333 | 37343 ft | 466 kts | 236° |
| 2026-05-06 04:24 | 54.90255 | -66.62856 | 37349 ft | 466 kts | 236° |
| 2026-05-06 04:25 | 54.86777 | -66.72363 | 37350 ft | 466 kts | 236° |
| 2026-05-06 04:25 | 54.83295 | -66.81844 | 37350 ft | 466 kts | 236° |
| 2026-05-06 04:26 | 54.79804 | -66.91312 | 37350 ft | 466 kts | 236° |
| 2026-05-06 04:26 | 54.76302 | -67.00775 | 37349 ft | 467 kts | 236° |
| 2026-05-06 04:27 | 54.72792 | -67.10225 | 37351 ft | 467 kts | 235° |
| 2026-05-06 04:27 | 54.69268 | -67.19672 | 37351 ft | 467 kts | 235° |
| 2026-05-06 04:28 | 54.65762 | -67.29037 | 37352 ft | 468 kts | 235° |
| 2026-05-06 04:28 | 54.62225 | -67.38449 | 37353 ft | 467 kts | 235° |
| 2026-05-06 04:29 | 54.58671 | -67.47872 | 37354 ft | 468 kts | 235° |
| 2026-05-06 04:29 | 54.55111 | -67.57273 | 37356 ft | 468 kts | 235° |
| 2026-05-06 04:30 | 54.51547 | -67.66652 | 37359 ft | 467 kts | 235° |
| 2026-05-06 04:30 | 54.47985 | -67.75983 | 37352 ft | 467 kts | 235° |
| 2026-05-06 04:31 | 54.44411 | -67.85319 | 37361 ft | 467 kts | 235° |
| 2026-05-06 04:31 | 54.40834 | -67.94632 | 37362 ft | 467 kts | 235° |
| 2026-05-06 04:32 | 54.37244 | -68.03920 | 37359 ft | 467 kts | 235° |
| 2026-05-06 04:32 | 54.33646 | -68.13205 | 37374 ft | 468 kts | 235° |
| 2026-05-06 04:33 | 54.30036 | -68.22499 | 37369 ft | 468 kts | 235° |
| 2026-05-06 04:33 | 54.26423 | -68.31765 | 37371 ft | 469 kts | 234° |
| 2026-05-06 04:34 | 54.22791 | -68.41028 | 37373 ft | 469 kts | 234° |
| 2026-05-06 04:34 | 54.19157 | -68.50281 | 37379 ft | 469 kts | 234° |
| 2026-05-06 04:35 | 54.15506 | -68.59540 | 37383 ft | 471 kts | 234° |
| 2026-05-06 04:35 | 54.11839 | -68.68796 | 37384 ft | 471 kts | 234° |
| 2026-05-06 04:36 | 54.08166 | -68.78035 | 37387 ft | 471 kts | 234° |
| 2026-05-06 04:36 | 54.04483 | -68.87268 | 37389 ft | 472 kts | 234° |
| 2026-05-06 04:37 | 54.00790 | -68.96489 | 37390 ft | 472 kts | 234° |
| 2026-05-06 04:37 | 53.97098 | -69.05676 | 37393 ft | 468 kts | 234° |
| 2026-05-06 04:38 | 53.93467 | -69.14677 | 37394 ft | 465 kts | 234° |
| 2026-05-06 04:38 | 53.89797 | -69.23743 | 37397 ft | 466 kts | 234° |
| 2026-05-06 04:39 | 53.86117 | -69.32801 | 37399 ft | 467 kts | 234° |
| 2026-05-06 04:39 | 53.82420 | -69.41866 | 37401 ft | 468 kts | 234° |
| 2026-05-06 04:40 | 53.78706 | -69.50941 | 37411 ft | 469 kts | 234° |
| 2026-05-06 04:40 | 53.74980 | -69.60012 | 37415 ft | 470 kts | 234° |
| 2026-05-06 04:41 | 53.71244 | -69.69075 | 37417 ft | 470 kts | 234° |
| 2026-05-06 04:41 | 53.67500 | -69.78127 | 37419 ft | 470 kts | 233° |
| 2026-05-06 04:42 | 53.63747 | -69.87166 | 37421 ft | 471 kts | 233° |
| 2026-05-06 04:42 | 53.59983 | -69.96198 | 37424 ft | 471 kts | 233° |
| 2026-05-06 04:43 | 53.56216 | -70.05206 | 37427 ft | 471 kts | 233° |
| 2026-05-06 04:43 | 53.52433 | -70.14221 | 37429 ft | 472 kts | 233° |
| 2026-05-06 04:44 | 53.48644 | -70.23217 | 37431 ft | 471 kts | 233° |
| 2026-05-06 04:44 | 53.44855 | -70.32180 | 37433 ft | 471 kts | 233° |
| 2026-05-06 04:45 | 53.41067 | -70.41110 | 37436 ft | 470 kts | 233° |
| 2026-05-06 04:45 | 53.37278 | -70.50010 | 37437 ft | 469 kts | 233° |
| 2026-05-06 04:46 | 53.33506 | -70.58839 | 37440 ft | 468 kts | 233° |
| 2026-05-06 04:46 | 53.29711 | -70.67693 | 37443 ft | 468 kts | 233° |
| 2026-05-06 04:47 | 53.25912 | -70.76523 | 37444 ft | 467 kts | 233° |
| 2026-05-06 04:47 | 53.22112 | -70.85327 | 37446 ft | 467 kts | 233° |
| 2026-05-06 04:48 | 53.18306 | -70.94112 | 37449 ft | 467 kts | 233° |
| 2026-05-06 04:48 | 53.14490 | -71.02891 | 37451 ft | 467 kts | 233° |
| 2026-05-06 04:49 | 53.10670 | -71.11648 | 37453 ft | 467 kts | 233° |
| 2026-05-06 04:49 | 53.06842 | -71.20392 | 37455 ft | 467 kts | 233° |
| 2026-05-06 04:50 | 53.03011 | -71.29116 | 37457 ft | 467 kts | 233° |
| 2026-05-06 04:50 | 52.99171 | -71.37826 | 37460 ft | 467 kts | 233° |
| 2026-05-06 04:51 | 52.95325 | -71.46524 | 37492 ft | 467 kts | 233° |
| 2026-05-06 04:51 | 52.91472 | -71.55206 | 37494 ft | 467 kts | 233° |
| 2026-05-06 04:52 | 52.87622 | -71.63852 | 37495 ft | 466 kts | 233° |
| 2026-05-06 04:52 | 52.83768 | -71.72477 | 37496 ft | 466 kts | 233° |
| 2026-05-06 04:53 | 52.79906 | -71.81091 | 37497 ft | 466 kts | 233° |
| 2026-05-06 04:53 | 52.76041 | -71.89683 | 37498 ft | 466 kts | 233° |
| 2026-05-06 04:54 | 52.72199 | -71.98194 | 37499 ft | 465 kts | 232° |
| 2026-05-06 04:54 | 52.68329 | -72.06740 | 37501 ft | 466 kts | 232° |
| 2026-05-06 04:55 | 52.64438 | -72.15300 | 37502 ft | 467 kts | 232° |
| 2026-05-06 04:55 | 52.60545 | -72.23840 | 37504 ft | 466 kts | 232° |
| 2026-05-06 04:56 | 52.56646 | -72.32363 | 37505 ft | 466 kts | 232° |
| 2026-05-06 04:56 | 52.52741 | -72.40871 | 37507 ft | 466 kts | 232° |
| 2026-05-06 04:57 | 52.48828 | -72.49366 | 37508 ft | 466 kts | 232° |
| 2026-05-06 04:57 | 52.44913 | -72.57840 | 37510 ft | 466 kts | 232° |
| 2026-05-06 04:58 | 52.40987 | -72.66307 | 37513 ft | 466 kts | 232° |
| 2026-05-06 04:58 | 52.37085 | -72.74696 | 37515 ft | 466 kts | 232° |
| 2026-05-06 04:59 | 52.33149 | -72.83131 | 37517 ft | 466 kts | 232° |
| 2026-05-06 04:59 | 52.29209 | -72.91545 | 37519 ft | 466 kts | 232° |
| 2026-05-06 05:00 | 52.25259 | -72.99953 | 37522 ft | 466 kts | 232° |
| 2026-05-06 05:00 | 52.21303 | -73.08347 | 37524 ft | 467 kts | 232° |
| 2026-05-06 05:01 | 52.17334 | -73.16737 | 37530 ft | 467 kts | 232° |
| 2026-05-06 05:01 | 52.13361 | -73.25114 | 37530 ft | 467 kts | 232° |
| 2026-05-06 05:02 | 52.09388 | -73.33461 | 37533 ft | 466 kts | 232° |
| 2026-05-06 05:02 | 52.05412 | -73.41787 | 37536 ft | 466 kts | 232° |
| 2026-05-06 05:03 | 52.01436 | -73.50085 | 37540 ft | 465 kts | 232° |
| 2026-05-06 05:03 | 51.97459 | -73.58359 | 37543 ft | 464 kts | 232° |
| 2026-05-06 05:04 | 51.93497 | -73.66577 | 37547 ft | 462 kts | 232° |
| 2026-05-06 05:04 | 51.90201 | -73.73393 | 37545 ft | 463 kts | 232° |
| 2026-05-06 05:05 | 51.86223 | -73.81592 | 37550 ft | 464 kts | 232° |
| 2026-05-06 05:05 | 51.82231 | -73.89798 | 37550 ft | 464 kts | 232° |
| 2026-05-06 05:06 | 51.78238 | -73.97978 | 37553 ft | 464 kts | 231° |
| 2026-05-06 05:06 | 51.74238 | -74.06148 | 37556 ft | 464 kts | 231° |
| 2026-05-06 05:07 | 51.70233 | -74.14300 | 37558 ft | 464 kts | 231° |
| 2026-05-06 05:07 | 51.66223 | -74.22434 | 37563 ft | 463 kts | 231° |
| 2026-05-06 05:08 | 51.62212 | -74.30549 | 37565 ft | 463 kts | 231° |
| 2026-05-06 05:08 | 51.58231 | -74.38578 | 37567 ft | 462 kts | 231° |
| 2026-05-06 05:09 | 51.54216 | -74.46647 | 37566 ft | 462 kts | 231° |
| 2026-05-06 05:09 | 51.50203 | -74.54689 | 37569 ft | 461 kts | 231° |
| 2026-05-06 05:10 | 51.46188 | -74.62711 | 37571 ft | 461 kts | 231° |
| 2026-05-06 05:10 | 51.42202 | -74.70753 | 37579 ft | 461 kts | 231° |
| 2026-05-06 05:11 | 51.38180 | -74.78744 | 37577 ft | 461 kts | 231° |
| 2026-05-06 05:11 | 51.34137 | -74.86705 | 37580 ft | 461 kts | 231° |
| 2026-05-06 05:12 | 51.30095 | -74.94644 | 37582 ft | 461 kts | 231° |
| 2026-05-06 05:12 | 51.26049 | -75.02580 | 37585 ft | 461 kts | 231° |
| 2026-05-06 05:13 | 51.22207 | -75.10753 | 37587 ft | 460 kts | 235° |
| 2026-05-06 05:13 | 51.18564 | -75.19147 | 37589 ft | 460 kts | 235° |
| 2026-05-06 05:14 | 51.14894 | -75.27514 | 37592 ft | 460 kts | 235° |
| 2026-05-06 05:14 | 51.11207 | -75.35843 | 37593 ft | 460 kts | 234° |
| 2026-05-06 05:15 | 51.07532 | -75.44098 | 37595 ft | 460 kts | 234° |
| 2026-05-06 05:15 | 51.03847 | -75.52417 | 37597 ft | 460 kts | 235° |
| 2026-05-06 05:16 | 51.00204 | -75.60767 | 37599 ft | 460 kts | 235° |
| 2026-05-06 05:16 | 50.96535 | -75.69062 | 37600 ft | 459 kts | 235° |
| 2026-05-06 05:17 | 50.92851 | -75.77324 | 37601 ft | 459 kts | 235° |
| 2026-05-06 05:17 | 50.89161 | -75.85558 | 37603 ft | 458 kts | 234° |
| 2026-05-06 05:18 | 50.85467 | -75.93766 | 37604 ft | 457 kts | 234° |
| 2026-05-06 05:18 | 50.81776 | -76.01940 | 37604 ft | 457 kts | 234° |
| 2026-05-06 05:19 | 50.78060 | -76.10143 | 37608 ft | 460 kts | 234° |
| 2026-05-06 05:19 | 50.74335 | -76.18339 | 37609 ft | 459 kts | 234° |
| 2026-05-06 05:20 | 50.70608 | -76.26513 | 37610 ft | 458 kts | 234° |
| 2026-05-06 05:20 | 50.66884 | -76.34655 | 37612 ft | 458 kts | 234° |
| 2026-05-06 05:21 | 50.63179 | -76.42732 | 37613 ft | 458 kts | 234° |
| 2026-05-06 05:21 | 50.59443 | -76.50849 | 37615 ft | 458 kts | 234° |
| 2026-05-06 05:22 | 50.55701 | -76.58956 | 37616 ft | 458 kts | 234° |
| 2026-05-06 05:22 | 50.51944 | -76.67069 | 37619 ft | 459 kts | 234° |
| 2026-05-06 05:23 | 50.48180 | -76.75172 | 37620 ft | 459 kts | 234° |
| 2026-05-06 05:23 | 50.42517 | -76.87317 | 37623 ft | 460 kts | 234° |
| 2026-05-06 05:24 | 50.38732 | -76.95402 | 37626 ft | 460 kts | 234° |
| 2026-05-06 05:24 | 50.34940 | -77.03478 | 37638 ft | 461 kts | 234° |
| 2026-05-06 05:25 | 50.31137 | -77.11554 | 37639 ft | 461 kts | 234° |
| 2026-05-06 05:25 | 50.27325 | -77.19623 | 37641 ft | 461 kts | 234° |
| 2026-05-06 05:26 | 50.23510 | -77.27674 | 37642 ft | 461 kts | 234° |
| 2026-05-06 05:26 | 50.19687 | -77.35716 | 37644 ft | 461 kts | 234° |
| 2026-05-06 05:27 | 50.15886 | -77.43689 | 37646 ft | 461 kts | 234° |
| 2026-05-06 05:27 | 50.12050 | -77.51710 | 37646 ft | 462 kts | 233° |
| 2026-05-06 05:28 | 50.08201 | -77.59733 | 37647 ft | 462 kts | 234° |
| 2026-05-06 05:28 | 50.04353 | -77.67731 | 37647 ft | 461 kts | 233° |
| 2026-05-06 05:29 | 50.00506 | -77.75702 | 37648 ft | 461 kts | 233° |
| 2026-05-06 05:29 | 49.96653 | -77.83661 | 37649 ft | 461 kts | 233° |
| 2026-05-06 05:30 | 49.92796 | -77.91607 | 37650 ft | 461 kts | 233° |
| 2026-05-06 05:30 | 49.88933 | -77.99539 | 37650 ft | 461 kts | 233° |
| 2026-05-06 05:31 | 49.85087 | -78.07413 | 37650 ft | 461 kts | 233° |
| 2026-05-06 05:31 | 49.81212 | -78.15322 | 37650 ft | 461 kts | 233° |
| 2026-05-06 05:32 | 49.77338 | -78.23207 | 37651 ft | 460 kts | 233° |
| 2026-05-06 05:32 | 49.73461 | -78.31075 | 37656 ft | 459 kts | 233° |
| 2026-05-06 05:33 | 49.69586 | -78.38913 | 37655 ft | 458 kts | 233° |
| 2026-05-06 05:33 | 49.65717 | -78.46717 | 37657 ft | 457 kts | 233° |
| 2026-05-06 05:34 | 49.61849 | -78.54496 | 37659 ft | 457 kts | 233° |
| 2026-05-06 05:34 | 49.57980 | -78.62255 | 37662 ft | 456 kts | 233° |
| 2026-05-06 05:35 | 49.54112 | -78.69989 | 37665 ft | 455 kts | 233° |
| 2026-05-06 05:35 | 49.50248 | -78.77692 | 37668 ft | 455 kts | 233° |
| 2026-05-06 05:36 | 49.46377 | -78.85388 | 37672 ft | 454 kts | 233° |
| 2026-05-06 05:36 | 49.42515 | -78.93043 | 37676 ft | 453 kts | 233° |
| 2026-05-06 05:37 | 49.38677 | -79.00628 | 37680 ft | 453 kts | 233° |
| 2026-05-06 05:37 | 49.34807 | -79.08255 | 37682 ft | 452 kts | 233° |
| 2026-05-06 05:38 | 49.30941 | -79.15852 | 37688 ft | 452 kts | 233° |
| 2026-05-06 05:38 | 49.27069 | -79.23441 | 37692 ft | 452 kts | 233° |
| 2026-05-06 05:39 | 49.23189 | -79.31022 | 37696 ft | 452 kts | 233° |
| 2026-05-06 05:39 | 49.19303 | -79.38594 | 37699 ft | 452 kts | 233° |
| 2026-05-06 05:40 | 49.15418 | -79.46141 | 37703 ft | 451 kts | 233° |
| 2026-05-06 05:40 | 49.11530 | -79.53673 | 37706 ft | 451 kts | 233° |
| 2026-05-06 05:41 | 49.07642 | -79.61186 | 37710 ft | 451 kts | 233° |
| 2026-05-06 05:41 | 49.03748 | -79.68687 | 37712 ft | 450 kts | 233° |
| 2026-05-06 05:42 | 48.99859 | -79.76158 | 37715 ft | 450 kts | 233° |
| 2026-05-06 05:42 | 48.95972 | -79.83605 | 37717 ft | 449 kts | 233° |
| 2026-05-06 05:43 | 48.92089 | -79.91023 | 37719 ft | 448 kts | 233° |
| 2026-05-06 05:43 | 48.88231 | -79.98373 | 37722 ft | 448 kts | 233° |
| 2026-05-06 05:44 | 48.84338 | -80.05768 | 37729 ft | 449 kts | 233° |
| 2026-05-06 05:44 | 48.80435 | -80.13164 | 37736 ft | 449 kts | 233° |
| 2026-05-06 05:45 | 48.76527 | -80.20547 | 37737 ft | 448 kts | 233° |
| 2026-05-06 05:45 | 48.72623 | -80.27903 | 37738 ft | 447 kts | 233° |
| 2026-05-06 05:46 | 48.68726 | -80.35227 | 37739 ft | 447 kts | 233° |
| 2026-05-06 05:46 | 48.64818 | -80.42548 | 37738 ft | 447 kts | 233° |
| 2026-05-06 05:47 | 48.60905 | -80.49861 | 37740 ft | 447 kts | 233° |
| 2026-05-06 05:47 | 48.56987 | -80.57163 | 37741 ft | 447 kts | 233° |
| 2026-05-06 05:48 | 48.53066 | -80.64451 | 37746 ft | 447 kts | 233° |
| 2026-05-06 05:48 | 48.49141 | -80.71725 | 37746 ft | 447 kts | 233° |
| 2026-05-06 05:49 | 48.45211 | -80.78991 | 37746 ft | 447 kts | 233° |
| 2026-05-06 05:49 | 48.41274 | -80.86248 | 37745 ft | 447 kts | 233° |
| 2026-05-06 05:50 | 48.37333 | -80.93493 | 37744 ft | 447 kts | 233° |
| 2026-05-06 05:50 | 48.33386 | -81.00731 | 37745 ft | 447 kts | 233° |
| 2026-05-06 05:51 | 48.29438 | -81.07951 | 37744 ft | 447 kts | 233° |
| 2026-05-06 05:51 | 48.25482 | -81.15164 | 37744 ft | 447 kts | 233° |
| 2026-05-06 05:52 | 48.21522 | -81.22367 | 37746 ft | 447 kts | 233° |
| 2026-05-06 05:52 | 48.17558 | -81.29558 | 37747 ft | 447 kts | 233° |
| 2026-05-06 05:53 | 48.13591 | -81.36734 | 37748 ft | 447 kts | 233° |
| 2026-05-06 05:53 | 48.09628 | -81.43885 | 37748 ft | 446 kts | 233° |
| 2026-05-06 05:54 | 48.05685 | -81.50979 | 37749 ft | 446 kts | 233° |
| 2026-05-06 05:54 | 48.01687 | -81.58155 | 37752 ft | 446 kts | 233° |
| 2026-05-06 05:55 | 47.97740 | -81.65219 | 37753 ft | 445 kts | 233° |
| 2026-05-06 05:55 | 47.93784 | -81.72283 | 37756 ft | 443 kts | 233° |
| 2026-05-06 05:56 | 47.89831 | -81.79321 | 37759 ft | 444 kts | 233° |
| 2026-05-06 05:56 | 47.85859 | -81.86375 | 37762 ft | 445 kts | 233° |
| 2026-05-06 05:57 | 47.81881 | -81.93422 | 37764 ft | 444 kts | 233° |
| 2026-05-06 05:57 | 47.77904 | -82.00447 | 37767 ft | 444 kts | 233° |
| 2026-05-06 05:58 | 47.73917 | -82.07473 | 37770 ft | 444 kts | 233° |
| 2026-05-06 05:58 | 47.69933 | -82.14476 | 37774 ft | 444 kts | 233° |
| 2026-05-06 05:59 | 47.66622 | -82.20282 | 37777 ft | 443 kts | 233° |
| 2026-05-06 05:59 | 47.62637 | -82.27251 | 37779 ft | 442 kts | 233° |
| 2026-05-06 06:00 | 47.58655 | -82.34198 | 37781 ft | 442 kts | 233° |
| 2026-05-06 06:00 | 47.54673 | -82.41127 | 37786 ft | 442 kts | 233° |
| 2026-05-06 06:01 | 47.50690 | -82.48042 | 37790 ft | 441 kts | 233° |
| 2026-05-06 06:01 | 47.46713 | -82.54926 | 37813 ft | 440 kts | 233° |
| 2026-05-06 06:02 | 47.42738 | -82.61791 | 37837 ft | 439 kts | 233° |
| 2026-05-06 06:02 | 47.38768 | -82.68631 | 37847 ft | 439 kts | 233° |
| 2026-05-06 06:03 | 47.34799 | -82.75450 | 37852 ft | 438 kts | 233° |
| 2026-05-06 06:03 | 47.30829 | -82.82254 | 37857 ft | 437 kts | 233° |
| 2026-05-06 06:04 | 47.26860 | -82.89039 | 37861 ft | 437 kts | 233° |
| 2026-05-06 06:04 | 47.22891 | -82.95809 | 37865 ft | 437 kts | 233° |
| 2026-05-06 06:05 | 47.18914 | -83.02572 | 37870 ft | 437 kts | 233° |
| 2026-05-06 06:05 | 47.14970 | -83.09265 | 37873 ft | 436 kts | 233° |
| 2026-05-06 06:06 | 47.10996 | -83.15992 | 37876 ft | 436 kts | 233° |
| 2026-05-06 06:06 | 47.07019 | -83.22707 | 37879 ft | 436 kts | 233° |
| 2026-05-06 06:07 | 47.03043 | -83.29404 | 37881 ft | 435 kts | 233° |
| 2026-05-06 06:07 | 46.99068 | -83.36082 | 37884 ft | 435 kts | 233° |
| 2026-05-06 06:08 | 46.95088 | -83.42753 | 37886 ft | 435 kts | 233° |
| 2026-05-06 06:08 | 46.91107 | -83.49409 | 37888 ft | 434 kts | 233° |
| 2026-05-06 06:09 | 46.87127 | -83.56046 | 37891 ft | 434 kts | 233° |
| 2026-05-06 06:09 | 46.83149 | -83.62665 | 37886 ft | 433 kts | 233° |
| 2026-05-06 06:10 | 46.79175 | -83.69261 | 37885 ft | 432 kts | 233° |
| 2026-05-06 06:10 | 46.75207 | -83.75830 | 37886 ft | 431 kts | 233° |
| 2026-05-06 06:11 | 46.71249 | -83.82367 | 37892 ft | 430 kts | 233° |
| 2026-05-06 06:11 | 46.67319 | -83.88844 | 37892 ft | 429 kts | 233° |
| 2026-05-06 06:12 | 46.63364 | -83.95346 | 37893 ft | 429 kts | 233° |
| 2026-05-06 06:12 | 46.59436 | -84.01862 | 37892 ft | 428 kts | 233° |
| 2026-05-06 06:13 | 46.55482 | -84.08335 | 37892 ft | 428 kts | 233° |
| 2026-05-06 06:13 | 46.51513 | -84.14788 | 37891 ft | 428 kts | 232° |
| 2026-05-06 06:14 | 46.47544 | -84.21226 | 37891 ft | 428 kts | 232° |
| 2026-05-06 06:14 | 46.43569 | -84.27638 | 37888 ft | 428 kts | 230° |
| 2026-05-06 06:15 | 46.41169 | -84.30238 | 37901 ft | 437 kts | 214° |
| 2026-05-06 06:15 | 46.38361 | -84.32023 | 37891 ft | 443 kts | 207° |
| 2026-05-06 06:15 | 46.32409 | -84.34682 | 37898 ft | 452 kts | 202° |
| 2026-05-06 06:16 | 46.26240 | -84.36764 | 37897 ft | 458 kts | 201° |
| 2026-05-06 06:16 | 46.20028 | -84.38835 | 37908 ft | 458 kts | 201° |
| 2026-05-06 06:17 | 46.13818 | -84.40949 | 37908 ft | 458 kts | 201° |
| 2026-05-06 06:17 | 46.07619 | -84.43070 | 37906 ft | 458 kts | 201° |
| 2026-05-06 06:18 | 46.01438 | -84.45211 | 37917 ft | 457 kts | 201° |
| 2026-05-06 06:18 | 45.95312 | -84.47314 | 37913 ft | 455 kts | 202° |
| 2026-05-06 06:19 | 45.89170 | -84.49414 | 37918 ft | 453 kts | 202° |
| 2026-05-06 06:19 | 45.83032 | -84.51507 | 37921 ft | 454 kts | 202° |
| 2026-05-06 06:20 | 45.76879 | -84.53600 | 37924 ft | 455 kts | 202° |
| 2026-05-06 06:20 | 45.70729 | -84.55687 | 37926 ft | 454 kts | 202° |
| 2026-05-06 06:21 | 45.64588 | -84.57766 | 37930 ft | 454 kts | 202° |
| 2026-05-06 06:21 | 45.58447 | -84.59846 | 37931 ft | 453 kts | 202° |
| 2026-05-06 06:22 | 45.52314 | -84.61925 | 37935 ft | 453 kts | 202° |
| 2026-05-06 06:22 | 45.46189 | -84.63981 | 37941 ft | 452 kts | 202° |
| 2026-05-06 06:23 | 45.40078 | -84.66027 | 37933 ft | 450 kts | 202° |
| 2026-05-06 06:23 | 45.33976 | -84.68066 | 37930 ft | 451 kts | 202° |
| 2026-05-06 06:24 | 45.27874 | -84.70103 | 37924 ft | 450 kts | 202° |
| 2026-05-06 06:24 | 45.21734 | -84.72145 | 37925 ft | 455 kts | 202° |
| 2026-05-06 06:25 | 45.15612 | -84.74174 | 37920 ft | 454 kts | 202° |
| 2026-05-06 06:26 | 45.06397 | -84.77220 | 37911 ft | 453 kts | 202° |
| 2026-05-06 06:26 | 45.00265 | -84.79242 | 37906 ft | 452 kts | 203° |
| 2026-05-06 06:27 | 44.94144 | -84.81257 | 37906 ft | 452 kts | 203° |
| 2026-05-06 06:27 | 44.88030 | -84.83290 | 37903 ft | 451 kts | 203° |
| 2026-05-06 06:28 | 44.81920 | -84.85305 | 37901 ft | 451 kts | 203° |
| 2026-05-06 06:28 | 44.75800 | -84.87314 | 37899 ft | 452 kts | 203° |
| 2026-05-06 06:29 | 44.69676 | -84.89319 | 37896 ft | 451 kts | 203° |
| 2026-05-06 06:29 | 44.63565 | -84.91315 | 37896 ft | 451 kts | 203° |
| 2026-05-06 06:30 | 44.57460 | -84.93304 | 37897 ft | 450 kts | 203° |
| 2026-05-06 06:30 | 44.51398 | -84.95275 | 37899 ft | 450 kts | 203° |
| 2026-05-06 06:31 | 44.45303 | -84.97252 | 37900 ft | 450 kts | 204° |
| 2026-05-06 06:31 | 44.39211 | -84.99225 | 37900 ft | 449 kts | 204° |
| 2026-05-06 06:32 | 44.33126 | -85.01205 | 37901 ft | 449 kts | 204° |
| 2026-05-06 06:32 | 44.27045 | -85.03163 | 37901 ft | 448 kts | 204° |
| 2026-05-06 06:33 | 44.20963 | -85.05115 | 37898 ft | 448 kts | 204° |
| 2026-05-06 06:33 | 44.14885 | -85.07062 | 37899 ft | 448 kts | 204° |
| 2026-05-06 06:34 | 44.08814 | -85.09004 | 37897 ft | 448 kts | 204° |
| 2026-05-06 06:34 | 44.02740 | -85.10942 | 37896 ft | 448 kts | 204° |
| 2026-05-06 06:35 | 43.96714 | -85.12873 | 37895 ft | 447 kts | 204° |
| 2026-05-06 06:35 | 43.90613 | -85.14816 | 37894 ft | 446 kts | 205° |
| 2026-05-06 06:36 | 43.84565 | -85.16731 | 37895 ft | 446 kts | 205° |
| 2026-05-06 06:36 | 43.78554 | -85.18631 | 37891 ft | 446 kts | 205° |
| 2026-05-06 06:37 | 43.72504 | -85.20540 | 37891 ft | 446 kts | 205° |
| 2026-05-06 06:37 | 43.66454 | -85.22447 | 37891 ft | 446 kts | 205° |
| 2026-05-06 06:38 | 43.60387 | -85.24353 | 37892 ft | 448 kts | 205° |
| 2026-05-06 06:38 | 43.54312 | -85.26257 | 37892 ft | 447 kts | 205° |
| 2026-05-06 06:39 | 43.48250 | -85.28163 | 37895 ft | 447 kts | 205° |
| 2026-05-06 06:39 | 43.42193 | -85.30073 | 37898 ft | 446 kts | 205° |
| 2026-05-06 06:40 | 43.36135 | -85.31963 | 37900 ft | 446 kts | 205° |
| 2026-05-06 06:40 | 43.30078 | -85.33845 | 37906 ft | 446 kts | 205° |
| 2026-05-06 06:41 | 43.24005 | -85.35732 | 37904 ft | 448 kts | 205° |
| 2026-05-06 06:41 | 43.17935 | -85.37614 | 37906 ft | 447 kts | 205° |
| 2026-05-06 06:42 | 43.11911 | -85.39476 | 37910 ft | 447 kts | 205° |
| 2026-05-06 06:42 | 43.05834 | -85.41366 | 37913 ft | 448 kts | 205° |
| 2026-05-06 06:43 | 42.99755 | -85.43243 | 37915 ft | 447 kts | 205° |
| 2026-05-06 06:43 | 42.93682 | -85.45109 | 37918 ft | 448 kts | 205° |
| 2026-05-06 06:44 | 42.87590 | -85.46977 | 37920 ft | 448 kts | 206° |
| 2026-05-06 06:44 | 42.84596 | -85.48027 | 37916 ft | 434 kts | 214° |
| 2026-05-06 06:44 | 42.82071 | -85.49950 | 37920 ft | 403 kts | 230° |
| 2026-05-06 06:44 | 42.80251 | -85.52720 | 37924 ft | 386 kts | 246° |
| 2026-05-06 06:45 | 42.78769 | -85.55777 | 37930 ft | 389 kts | 240° |
| 2026-05-06 06:45 | 42.76259 | -85.62147 | 37923 ft | 380 kts | 259° |
| 2026-05-06 06:46 | 42.75150 | -85.69098 | 37923 ft | 372 kts | 261° |
| 2026-05-06 06:46 | 42.73989 | -85.75944 | 37927 ft | 371 kts | 260° |
| 2026-05-06 06:47 | 42.72752 | -85.82775 | 37930 ft | 373 kts | 259° |
| 2026-05-06 06:47 | 42.71500 | -85.89608 | 37849 ft | 372 kts | 259° |
| 2026-05-06 06:47 | 42.70878 | -85.92990 | 37727 ft | 362 kts | 259° |
| 2026-05-06 06:48 | 42.70280 | -85.96241 | 37718 ft | 347 kts | 259° |
| 2026-05-06 06:48 | 42.69121 | -86.02544 | 37719 ft | 350 kts | 259° |
| 2026-05-06 06:49 | 42.67928 | -86.09084 | 37721 ft | 367 kts | 259° |
| 2026-05-06 06:49 | 42.67302 | -86.12491 | 37483 ft | 377 kts | 259° |
| 2026-05-06 06:49 | 42.66658 | -86.15970 | 36871 ft | 380 kts | 259° |
| 2026-05-06 06:49 | 42.66012 | -86.19433 | 36149 ft | 377 kts | 259° |
| 2026-05-06 06:50 | 42.65375 | -86.22876 | 35442 ft | 374 kts | 259° |
| 2026-05-06 06:50 | 42.64738 | -86.26292 | 34777 ft | 371 kts | 259° |
| 2026-05-06 06:50 | 42.64112 | -86.29666 | 34200 ft | 365 kts | 259° |
| 2026-05-06 06:50 | 42.63516 | -86.32993 | 33652 ft | 360 kts | 259° |
| 2026-05-06 06:51 | 42.62919 | -86.36268 | 33086 ft | 355 kts | 259° |
| 2026-05-06 06:51 | 42.62319 | -86.39505 | 32528 ft | 352 kts | 258° |
| 2026-05-06 06:51 | 42.61718 | -86.42707 | 31979 ft | 348 kts | 258° |
| 2026-05-06 06:51 | 42.61123 | -86.45866 | 31442 ft | 344 kts | 257° |
| 2026-05-06 06:52 | 42.60530 | -86.48996 | 30909 ft | 341 kts | 257° |
| 2026-05-06 06:52 | 42.59942 | -86.52096 | 30389 ft | 337 kts | 256° |
| 2026-05-06 06:52 | 42.59360 | -86.55158 | 29872 ft | 334 kts | 256° |
| 2026-05-06 06:52 | 42.58780 | -86.58203 | 29355 ft | 338 kts | 256° |
| 2026-05-06 06:53 | 42.58170 | -86.61402 | 28811 ft | 358 kts | 256° |
| 2026-05-06 06:53 | 42.57545 | -86.64684 | 28247 ft | 359 kts | 256° |
| 2026-05-06 06:53 | 42.56924 | -86.67945 | 27690 ft | 355 kts | 256° |
| 2026-05-06 06:53 | 42.56309 | -86.71169 | 27136 ft | 351 kts | 255° |
| 2026-05-06 06:54 | 42.55602 | -86.74312 | 26591 ft | 347 kts | 252° |
| 2026-05-06 06:54 | 42.55084 | -86.76354 | 26231 ft | 344 kts | 251° |
| 2026-05-06 06:54 | 42.54263 | -86.79385 | 25692 ft | 341 kts | 250° |
| 2026-05-06 06:54 | 42.53434 | -86.82371 | 25159 ft | 337 kts | 250° |
| 2026-05-06 06:55 | 42.52617 | -86.85331 | 24628 ft | 334 kts | 250° |
| 2026-05-06 06:55 | 42.51810 | -86.88269 | 24098 ft | 330 kts | 250° |
| 2026-05-06 06:55 | 42.51013 | -86.91173 | 23575 ft | 327 kts | 250° |
| 2026-05-06 06:55 | 42.50224 | -86.94054 | 23054 ft | 324 kts | 251° |
| 2026-05-06 06:56 | 42.49442 | -86.96906 | 22536 ft | 322 kts | 251° |
| 2026-05-06 06:56 | 42.48677 | -86.99700 | 22030 ft | 319 kts | 251° |
| 2026-05-06 06:56 | 42.47897 | -87.02545 | 21514 ft | 317 kts | 251° |
| 2026-05-06 06:56 | 42.47134 | -87.05328 | 21008 ft | 314 kts | 251° |
| 2026-05-06 06:57 | 42.46376 | -87.08095 | 20538 ft | 311 kts | 251° |
| 2026-05-06 06:57 | 42.45629 | -87.10823 | 20082 ft | 308 kts | 251° |
| 2026-05-06 06:57 | 42.44890 | -87.13544 | 19596 ft | 313 kts | 251° |
| 2026-05-06 06:57 | 42.44107 | -87.16419 | 19080 ft | 333 kts | 251° |
| 2026-05-06 06:58 | 42.43307 | -87.19330 | 18550 ft | 335 kts | 251° |
| 2026-05-06 06:58 | 42.42496 | -87.22271 | 18016 ft | 332 kts | 251° |
| 2026-05-06 06:58 | 42.41692 | -87.25181 | 17489 ft | 329 kts | 251° |
| 2026-05-06 06:58 | 42.40769 | -87.27987 | 16970 ft | 327 kts | 239° |
| 2026-05-06 06:59 | 42.39162 | -87.30174 | 16464 ft | 334 kts | 219° |
| 2026-05-06 06:59 | 42.36997 | -87.31378 | 16076 ft | 341 kts | 200° |
| 2026-05-06 06:59 | 42.34647 | -87.31852 | 15636 ft | 343 kts | 192° |
| 2026-05-06 06:59 | 42.32252 | -87.31969 | 15126 ft | 345 kts | 187° |
| 2026-05-06 07:00 | 42.29850 | -87.31881 | 14617 ft | 346 kts | 185° |
| 2026-05-06 07:00 | 42.27453 | -87.31700 | 14125 ft | 344 kts | 184° |
| 2026-05-06 07:00 | 42.25074 | -87.31526 | 13641 ft | 341 kts | 184° |
| 2026-05-06 07:00 | 42.22706 | -87.31382 | 13113 ft | 340 kts | 184° |
| 2026-05-06 07:01 | 42.20345 | -87.31256 | 12629 ft | 338 kts | 184° |
| 2026-05-06 07:01 | 42.18010 | -87.31140 | 12171 ft | 335 kts | 184° |
| 2026-05-06 07:01 | 42.15694 | -87.31031 | 11695 ft | 332 kts | 184° |
| 2026-05-06 07:01 | 42.13376 | -87.30925 | 11064 ft | 335 kts | 184° |
| 2026-05-06 07:02 | 42.11040 | -87.30819 | 10531 ft | 335 kts | 183° |
| 2026-05-06 07:02 | 42.08746 | -87.30715 | 10413 ft | 322 kts | 182° |
| 2026-05-06 07:02 | 42.06553 | -87.30616 | 10290 ft | 310 kts | 182° |
| 2026-05-06 07:02 | 42.04439 | -87.30521 | 10150 ft | 299 kts | 182° |
| 2026-05-06 07:03 | 42.02396 | -87.30429 | 10006 ft | 288 kts | 182° |
| 2026-05-06 07:03 | 42.00414 | -87.30361 | 9716 ft | 282 kts | 186° |
| 2026-05-06 07:03 | 41.98574 | -87.31016 | 9347 ft | 270 kts | 212° |
| 2026-05-06 07:03 | 41.97230 | -87.32664 | 9013 ft | 260 kts | 237° |
| 2026-05-06 07:04 | 41.96469 | -87.34853 | 8545 ft | 258 kts | 257° |
| 2026-05-06 07:04 | 41.96288 | -87.37232 | 8180 ft | 254 kts | 271° |
| 2026-05-06 07:04 | 41.96362 | -87.39575 | 7962 ft | 251 kts | 275° |
| 2026-05-06 07:04 | 41.96480 | -87.41926 | 7567 ft | 252 kts | 275° |
| 2026-05-06 07:05 | 41.96557 | -87.44283 | 7173 ft | 253 kts | 274° |
| 2026-05-06 07:05 | 41.96596 | -87.46697 | 6751 ft | 260 kts | 273° |
| 2026-05-06 07:05 | 41.96612 | -87.49123 | 6397 ft | 259 kts | 273° |
| 2026-05-06 07:05 | 41.96617 | -87.51534 | 6050 ft | 257 kts | 272° |
| 2026-05-06 07:06 | 41.96618 | -87.53929 | 5708 ft | 256 kts | 272° |
| 2026-05-06 07:06 | 41.96617 | -87.56312 | 5368 ft | 254 kts | 272° |
| 2026-05-06 07:06 | 41.96614 | -87.58674 | 5032 ft | 252 kts | 272° |
| 2026-05-06 07:06 | 41.96612 | -87.61026 | 4698 ft | 250 kts | 272° |
| 2026-05-06 07:07 | 41.96609 | -87.63310 | 4378 ft | 239 kts | 272° |
| 2026-05-06 07:07 | 41.96606 | -87.65490 | 4071 ft | 227 kts | 272° |
| 2026-05-06 07:07 | 41.96603 | -87.67561 | 3780 ft | 216 kts | 272° |
| 2026-05-06 07:07 | 41.96601 | -87.69507 | 3513 ft | 200 kts | 272° |
| 2026-05-06 07:08 | 41.96599 | -87.71286 | 3261 ft | 181 kts | 272° |
| 2026-05-06 07:08 | 41.96596 | -87.72883 | 2996 ft | 161 kts | 273° |
| 2026-05-06 07:08 | 41.96595 | -87.74307 | 2816 ft | 146 kts | 273° |
| 2026-05-06 07:08 | 41.96593 | -87.75651 | 2625 ft | 143 kts | 273° |
| 2026-05-06 07:09 | 41.96591 | -87.76989 | 2435 ft | 144 kts | 274° |
| 2026-05-06 07:09 | 41.96589 | -87.78315 | 2243 ft | 144 kts | 274° |
| 2026-05-06 07:09 | 41.96587 | -87.79692 | 2045 ft | 146 kts | 274° |
| 2026-05-06 07:09 | 41.96586 | -87.81063 | 1851 ft | 148 kts | 274° |
| 2026-05-06 07:10 | 41.96584 | -87.82446 | 1659 ft | 151 kts | 274° |
| 2026-05-06 07:10 | 41.96581 | -87.83850 | 1452 ft | 150 kts | 274° |
| 2026-05-06 07:10 | 41.96575 | -87.85248 | 1251 ft | 149 kts | 273° |
| 2026-05-06 07:10 | 41.96564 | -87.86639 | 1077 ft | 148 kts | 274° |
| 2026-05-06 07:11 | 41.96570 | -87.88027 | 897 ft | 148 kts | 275° |
| 2026-05-06 07:11 | 41.96568 | -87.89410 | 704 ft | 147 kts | 275° |
| 2026-05-06 07:11 | 41.96574 | -87.90699 | 682 ft | 120 kts | 271° |
| 2026-05-06 07:11 | 41.96574 | -87.91522 | 682 ft | 58 kts | 270° |
| 2026-05-06 07:12 | 41.96572 | -87.91937 | 681 ft | 28 kts | 270° |
| 2026-05-06 07:12 | 41.96600 | -87.92073 | 681 ft | 13 kts | 335° |
| 2026-05-06 07:12 | 41.96686 | -87.92086 | 681 ft | 12 kts | 360° |
| 2026-05-06 07:12 | 41.96732 | -87.92051 | 681 ft | 7 kts | 71° |
| 2026-05-06 07:13 | 41.96738 | -87.91967 | 681 ft | 16 kts | 89° |
| 2026-05-06 07:13 | 41.96738 | -87.91764 | 681 ft | 23 kts | 90° |
| 2026-05-06 07:13 | 41.96739 | -87.91556 | 681 ft | 22 kts | 90° |
| 2026-05-06 07:13 | 41.96739 | -87.91357 | 681 ft | 21 kts | 91° |
| 2026-05-06 07:14 | 41.96737 | -87.91167 | 681 ft | 20 kts | 90° |
| 2026-05-06 07:14 | 41.96739 | -87.90986 | 681 ft | 19 kts | 88° |
| 2026-05-06 07:14 | 41.96741 | -87.90813 | 681 ft | 18 kts | 90° |
| 2026-05-06 07:14 | 41.96740 | -87.90628 | 681 ft | 25 kts | 90° |
| 2026-05-06 07:15 | 41.96739 | -87.90403 | 681 ft | 23 kts | 91° |
| 2026-05-06 07:15 | 41.96739 | -87.90194 | 681 ft | 22 kts | 89° |
| 2026-05-06 07:15 | 41.96741 | -87.89993 | 681 ft | 21 kts | 89° |
| 2026-05-06 07:15 | 41.96740 | -87.89801 | 681 ft | 20 kts | 90° |
| 2026-05-06 07:16 | 41.96741 | -87.89619 | 681 ft | 19 kts | 89° |
| 2026-05-06 07:16 | 41.96742 | -87.89445 | 681 ft | 18 kts | 90° |
| 2026-05-06 07:16 | 41.96741 | -87.89281 | 681 ft | 17 kts | 90° |
| 2026-05-06 07:16 | 41.96774 | -87.89135 | 681 ft | 16 kts | 55° |
| 2026-05-06 07:17 | 41.96860 | -87.89067 | 681 ft | 13 kts | 360° |
| 2026-05-06 07:17 | 41.96950 | -87.89071 | 681 ft | 13 kts | 359° |
| 2026-05-06 07:17 | 41.97037 | -87.89072 | 681 ft | 12 kts | 360° |
| 2026-05-06 07:17 | 41.97121 | -87.89072 | 681 ft | 12 kts | 0° |
| 2026-05-06 07:18 | 41.97190 | -87.89033 | 681 ft | 9 kts | 65° |
| 2026-05-06 07:18 | 41.97201 | -87.88973 | 681 ft | 9 kts | 72° |
| 2026-05-06 07:18 | 41.97264 | -87.88877 | 681 ft | 15 kts | 72° |
| 2026-05-06 07:18 | 41.97270 | -87.88740 | 681 ft | 14 kts | 90° |
| 2026-05-06 07:19 | 41.97270 | -87.88622 | 681 ft | 9 kts | 90° |
| 2026-05-06 07:19 | 41.97280 | -87.88563 | 681 ft | 3 kts | 31° |
| 2026-05-06 07:19 | 41.97300 | -87.88566 | 681 ft | 3 kts | 348° |
| 2026-05-06 07:19 | 41.97320 | -87.88568 | 681 ft | 3 kts | 359° |
| 2026-05-06 07:20 | 41.97339 | -87.88568 | 681 ft | 3 kts | 360° |
| 2026-05-06 07:20 | 41.97346 | -87.88568 | 681 ft | 0 kts | 0° |